<?xml version='1.0' encoding='UTF-8' standalone='yes' ?>
<gpx xmlns="http://www.topografix.com/GPX/1/1" xmlns:geotracker="http://ilyabogdanovich.com/gpx/extensions/geotracker" xmlns:xsi="http://www.w3.org/2001/XMLSchema-instance" xsi:schemaLocation="http://www.topografix.com/GPX/1/1 http://www.topografix.com/GPX/1/1/gpx.xsd" version="1.1" creator="Записано в Геотрекере для Android от Ильи Богдановича">
  <metadata>
    <name>2026-08-20 183138.gpx</name>
    <link href="http://www.garmin.com" />
    <time>2026-08-22T11:29:20Z</time>
  </metadata>
  <trk>
    <name>2026-08-20 18:31:38</name>
    <extensions>
      <geotracker:meta>
        <geotracker:length>6591.61</geotracker:length>
        <geotracker:duration>21377000</geotracker:duration>
        <geotracker:creationtime>2026-08-20T09:35:20Z</geotracker:creationtime>
        <geotracker:activity>0</geotracker:activity>
      </geotracker:meta>
    </extensions>
    <trkseg>
      <trkpt lat="60.11188821" lon="30.50297803">
        <ele>44.36</ele>
        <time>2026-08-20T09:35:20Z</time>
      </trkpt>
      <trkpt lat="60.11188595" lon="30.50299086">
        <ele>44.36</ele>
        <time>2026-08-20T09:35:21Z</time>
      </trkpt>
      <trkpt lat="60.11187974" lon="30.50302807">
        <ele>44.36</ele>
        <time>2026-08-20T09:35:23Z</time>
      </trkpt>
      <trkpt lat="60.11188745" lon="30.50323385">
        <ele>44.84</ele>
        <time>2026-08-20T09:35:31Z</time>
      </trkpt>
      <trkpt lat="60.11192836" lon="30.50358597">
        <ele>44.84</ele>
        <time>2026-08-20T09:35:45Z</time>
      </trkpt>
      <trkpt lat="60.11194445" lon="30.50382502">
        <ele>45.32</ele>
        <time>2026-08-20T09:36:00Z</time>
      </trkpt>
      <trkpt lat="60.11194973" lon="30.50384346">
        <ele>45.32</ele>
        <time>2026-08-20T09:36:01Z</time>
      </trkpt>
      <trkpt lat="60.11205509" lon="30.50426449">
        <ele>44.84</ele>
        <time>2026-08-20T09:36:21Z</time>
      </trkpt>
      <trkpt lat="60.11213011" lon="30.50472298">
        <ele>44.84</ele>
        <time>2026-08-20T09:36:41Z</time>
      </trkpt>
      <trkpt lat="60.1122151" lon="30.50519714">
        <ele>44.84</ele>
        <time>2026-08-20T09:37:02Z</time>
      </trkpt>
      <trkpt lat="60.11229884" lon="30.50566494">
        <ele>44.84</ele>
        <time>2026-08-20T09:37:23Z</time>
      </trkpt>
      <trkpt lat="60.11232348" lon="30.50580994">
        <ele>44.84</ele>
        <time>2026-08-20T09:37:30Z</time>
      </trkpt>
      <trkpt lat="60.11237805" lon="30.5059775">
        <ele>44.84</ele>
        <time>2026-08-20T09:37:44Z</time>
      </trkpt>
      <trkpt lat="60.11238006" lon="30.50601689">
        <ele>44.36</ele>
        <time>2026-08-20T09:37:51Z</time>
      </trkpt>
      <trkpt lat="60.11241015" lon="30.50617514">
        <ele>44.36</ele>
        <time>2026-08-20T09:37:59Z</time>
      </trkpt>
      <trkpt lat="60.1124534" lon="30.50633607">
        <ele>44.36</ele>
        <time>2026-08-20T09:38:08Z</time>
      </trkpt>
      <trkpt lat="60.11241434" lon="30.50649089">
        <ele>44.36</ele>
        <time>2026-08-20T09:38:16Z</time>
      </trkpt>
      <trkpt lat="60.11240755" lon="30.506596">
        <ele>44.36</ele>
        <time>2026-08-20T09:38:22Z</time>
      </trkpt>
      <trkpt lat="60.11247058" lon="30.50672885">
        <ele>44.36</ele>
        <time>2026-08-20T09:38:30Z</time>
      </trkpt>
      <trkpt lat="60.11257259" lon="30.50699053">
        <ele>44.36</ele>
        <time>2026-08-20T09:38:44Z</time>
      </trkpt>
      <trkpt lat="60.1126435" lon="30.50739429">
        <ele>43.88</ele>
        <time>2026-08-20T09:39:03Z</time>
      </trkpt>
      <trkpt lat="60.11268717" lon="30.50770962">
        <ele>43.88</ele>
        <time>2026-08-20T09:39:16Z</time>
      </trkpt>
      <trkpt lat="60.1127026" lon="30.50781867">
        <ele>43.4</ele>
        <time>2026-08-20T09:39:21Z</time>
      </trkpt>
      <trkpt lat="60.11272665" lon="30.50802503">
        <ele>43.4</ele>
        <time>2026-08-20T09:39:29Z</time>
      </trkpt>
      <trkpt lat="60.11275196" lon="30.50842032">
        <ele>42.92</ele>
        <time>2026-08-20T09:39:43Z</time>
      </trkpt>
      <trkpt lat="60.11282271" lon="30.50904435">
        <ele>42.44</ele>
        <time>2026-08-20T09:40:04Z</time>
      </trkpt>
      <trkpt lat="60.11285288" lon="30.50924174">
        <ele>41.47</ele>
        <time>2026-08-20T09:40:18Z</time>
      </trkpt>
      <trkpt lat="60.11285598" lon="30.5092622">
        <ele>41.47</ele>
        <time>2026-08-20T09:40:28Z</time>
      </trkpt>
      <trkpt lat="60.11286495" lon="30.50937829">
        <ele>41.47</ele>
        <time>2026-08-20T09:40:33Z</time>
      </trkpt>
      <trkpt lat="60.11289814" lon="30.50975572">
        <ele>40.99</ele>
        <time>2026-08-20T09:40:47Z</time>
      </trkpt>
      <trkpt lat="60.1129108" lon="30.51026585">
        <ele>40.99</ele>
        <time>2026-08-20T09:41:05Z</time>
      </trkpt>
      <trkpt lat="60.11290686" lon="30.51068729">
        <ele>41.47</ele>
        <time>2026-08-20T09:41:21Z</time>
      </trkpt>
      <trkpt lat="60.11296864" lon="30.51127679">
        <ele>42.44</ele>
        <time>2026-08-20T09:41:41Z</time>
      </trkpt>
      <trkpt lat="60.1130315" lon="30.51181407">
        <ele>43.4</ele>
        <time>2026-08-20T09:42:00Z</time>
      </trkpt>
      <trkpt lat="60.11306964" lon="30.51210492">
        <ele>43.88</ele>
        <time>2026-08-20T09:42:13Z</time>
      </trkpt>
      <trkpt lat="60.11308431" lon="30.51221606">
        <ele>43.88</ele>
        <time>2026-08-20T09:42:17Z</time>
      </trkpt>
      <trkpt lat="60.11312965" lon="30.51273323">
        <ele>44.84</ele>
        <time>2026-08-20T09:42:36Z</time>
      </trkpt>
      <trkpt lat="60.11316645" lon="30.51312776">
        <ele>45.32</ele>
        <time>2026-08-20T09:42:52Z</time>
      </trkpt>
      <trkpt lat="60.11315689" lon="30.51315526">
        <ele>45.8</ele>
        <time>2026-08-20T09:43:07Z</time>
      </trkpt>
      <trkpt lat="60.1131211" lon="30.51262309">
        <ele>44.84</ele>
        <time>2026-08-20T09:43:29Z</time>
      </trkpt>
      <trkpt lat="60.1131056" lon="30.51244137">
        <ele>44.84</ele>
        <time>2026-08-20T09:43:45Z</time>
      </trkpt>
      <trkpt lat="60.11310568" lon="30.51244439">
        <ele>44.84</ele>
        <time>2026-08-20T09:44:09Z</time>
      </trkpt>
      <trkpt lat="60.11309654" lon="30.51228228">
        <ele>44.36</ele>
        <time>2026-08-20T09:44:16Z</time>
      </trkpt>
      <trkpt lat="60.11308649" lon="30.51219963">
        <ele>44.36</ele>
        <time>2026-08-20T09:44:19Z</time>
      </trkpt>
      <trkpt lat="60.11306101" lon="30.51179655">
        <ele>43.4</ele>
        <time>2026-08-20T09:44:34Z</time>
      </trkpt>
      <trkpt lat="60.11303946" lon="30.51158717">
        <ele>42.92</ele>
        <time>2026-08-20T09:44:49Z</time>
      </trkpt>
      <trkpt lat="60.11298884" lon="30.51116019">
        <ele>42.44</ele>
        <time>2026-08-20T09:45:05Z</time>
      </trkpt>
      <trkpt lat="60.1129357" lon="30.51062744">
        <ele>41.47</ele>
        <time>2026-08-20T09:45:26Z</time>
      </trkpt>
      <trkpt lat="60.11294374" lon="30.51046148">
        <ele>41.47</ele>
        <time>2026-08-20T09:45:38Z</time>
      </trkpt>
      <trkpt lat="60.11293913" lon="30.51036626">
        <ele>41.47</ele>
        <time>2026-08-20T09:45:42Z</time>
      </trkpt>
      <trkpt lat="60.1129455" lon="30.51019334">
        <ele>41.47</ele>
        <time>2026-08-20T09:45:57Z</time>
      </trkpt>
      <trkpt lat="60.11297291" lon="30.51014322">
        <ele>40.99</ele>
        <time>2026-08-20T09:46:02Z</time>
      </trkpt>
      <trkpt lat="60.11299454" lon="30.51009838">
        <ele>38.11</ele>
        <time>2026-08-20T09:46:23Z</time>
      </trkpt>
      <trkpt lat="60.11300627" lon="30.51008656">
        <ele>38.11</ele>
        <time>2026-08-20T09:46:43Z</time>
      </trkpt>
      <trkpt lat="60.11301306" lon="30.51006979">
        <ele>38.59</ele>
        <time>2026-08-20T09:47:06Z</time>
      </trkpt>
      <trkpt lat="60.11304039" lon="30.51009913">
        <ele>38.11</ele>
        <time>2026-08-20T09:47:39Z</time>
      </trkpt>
      <trkpt lat="60.11309034" lon="30.51005747">
        <ele>38.11</ele>
        <time>2026-08-20T09:47:57Z</time>
      </trkpt>
      <trkpt lat="60.11314357" lon="30.51006854">
        <ele>38.59</ele>
        <time>2026-08-20T09:48:18Z</time>
      </trkpt>
      <trkpt lat="60.11318187" lon="30.51008362">
        <ele>38.59</ele>
        <time>2026-08-20T09:48:36Z</time>
      </trkpt>
      <trkpt lat="60.11321741" lon="30.51012537">
        <ele>38.59</ele>
        <time>2026-08-20T09:48:56Z</time>
      </trkpt>
      <trkpt lat="60.11326091" lon="30.51011648">
        <ele>38.59</ele>
        <time>2026-08-20T09:49:19Z</time>
      </trkpt>
      <trkpt lat="60.11330626" lon="30.51020214">
        <ele>38.59</ele>
        <time>2026-08-20T09:49:41Z</time>
      </trkpt>
      <trkpt lat="60.11332638" lon="30.51026174">
        <ele>38.11</ele>
        <time>2026-08-20T09:50:00Z</time>
      </trkpt>
      <trkpt lat="60.1134511" lon="30.51041446">
        <ele>38.59</ele>
        <time>2026-08-20T09:50:22Z</time>
      </trkpt>
      <trkpt lat="60.11358093" lon="30.51067765">
        <ele>38.59</ele>
        <time>2026-08-20T09:50:48Z</time>
      </trkpt>
      <trkpt lat="60.1136645" lon="30.51083079">
        <ele>38.59</ele>
        <time>2026-08-20T09:51:10Z</time>
      </trkpt>
      <trkpt lat="60.11374396" lon="30.51098325">
        <ele>38.59</ele>
        <time>2026-08-20T09:51:33Z</time>
      </trkpt>
      <trkpt lat="60.11377288" lon="30.51101418">
        <ele>38.59</ele>
        <time>2026-08-20T09:51:54Z</time>
      </trkpt>
      <trkpt lat="60.1138199" lon="30.5110975">
        <ele>38.59</ele>
        <time>2026-08-20T09:52:11Z</time>
      </trkpt>
      <trkpt lat="60.11386776" lon="30.51122298">
        <ele>38.59</ele>
        <time>2026-08-20T09:52:32Z</time>
      </trkpt>
      <trkpt lat="60.11396977" lon="30.51130277">
        <ele>38.59</ele>
        <time>2026-08-20T09:52:54Z</time>
      </trkpt>
      <trkpt lat="60.11401604" lon="30.5113565">
        <ele>38.59</ele>
        <time>2026-08-20T09:53:17Z</time>
      </trkpt>
      <trkpt lat="60.1140582" lon="30.51148206">
        <ele>38.59</ele>
        <time>2026-08-20T09:53:34Z</time>
      </trkpt>
      <trkpt lat="60.11412039" lon="30.5115518">
        <ele>38.59</ele>
        <time>2026-08-20T09:53:59Z</time>
      </trkpt>
      <trkpt lat="60.11414537" lon="30.51156278">
        <ele>38.59</ele>
        <time>2026-08-20T09:54:17Z</time>
      </trkpt>
      <trkpt lat="60.11419348" lon="30.51167157">
        <ele>38.59</ele>
        <time>2026-08-20T09:54:37Z</time>
      </trkpt>
      <trkpt lat="60.11424311" lon="30.51175774">
        <ele>38.59</ele>
        <time>2026-08-20T09:54:56Z</time>
      </trkpt>
      <trkpt lat="60.11436959" lon="30.51185925">
        <ele>39.07</ele>
        <time>2026-08-20T09:55:21Z</time>
      </trkpt>
      <trkpt lat="60.11442801" lon="30.51199822">
        <ele>39.07</ele>
        <time>2026-08-20T09:55:43Z</time>
      </trkpt>
      <trkpt lat="60.11443656" lon="30.51199788">
        <ele>39.07</ele>
        <time>2026-08-20T09:56:11Z</time>
      </trkpt>
      <trkpt lat="60.11443991" lon="30.51199084">
        <ele>38.59</ele>
        <time>2026-08-20T09:56:45Z</time>
      </trkpt>
      <trkpt lat="60.11444276" lon="30.51199369">
        <ele>38.59</ele>
        <time>2026-08-20T09:57:15Z</time>
      </trkpt>
      <trkpt lat="60.11450839" lon="30.51210869">
        <ele>38.59</ele>
        <time>2026-08-20T09:57:32Z</time>
      </trkpt>
      <trkpt lat="60.11458341" lon="30.51224632">
        <ele>38.59</ele>
        <time>2026-08-20T09:57:53Z</time>
      </trkpt>
      <trkpt lat="60.11470989" lon="30.51240214">
        <ele>39.07</ele>
        <time>2026-08-20T09:58:19Z</time>
      </trkpt>
      <trkpt lat="60.11473856" lon="30.51251614">
        <ele>39.07</ele>
        <time>2026-08-20T09:58:40Z</time>
      </trkpt>
      <trkpt lat="60.11477661" lon="30.51256592">
        <ele>39.07</ele>
        <time>2026-08-20T09:59:02Z</time>
      </trkpt>
      <trkpt lat="60.1147829" lon="30.51258093">
        <ele>38.59</ele>
        <time>2026-08-20T09:59:42Z</time>
      </trkpt>
      <trkpt lat="60.1147834" lon="30.51258302">
        <ele>38.59</ele>
        <time>2026-08-20T10:00:13Z</time>
      </trkpt>
      <trkpt lat="60.1148067" lon="30.51263474">
        <ele>39.07</ele>
        <time>2026-08-20T10:00:45Z</time>
      </trkpt>
      <trkpt lat="60.11499186" lon="30.5128489">
        <ele>39.07</ele>
        <time>2026-08-20T10:01:13Z</time>
      </trkpt>
      <trkpt lat="60.11507912" lon="30.51299742">
        <ele>39.07</ele>
        <time>2026-08-20T10:01:40Z</time>
      </trkpt>
      <trkpt lat="60.1151538" lon="30.51312374">
        <ele>39.07</ele>
        <time>2026-08-20T10:02:01Z</time>
      </trkpt>
      <trkpt lat="60.11516109" lon="30.5131535">
        <ele>39.07</ele>
        <time>2026-08-20T10:02:30Z</time>
      </trkpt>
      <trkpt lat="60.11522111" lon="30.51326338">
        <ele>39.07</ele>
        <time>2026-08-20T10:02:52Z</time>
      </trkpt>
      <trkpt lat="60.11531054" lon="30.51333982">
        <ele>39.07</ele>
        <time>2026-08-20T10:03:12Z</time>
      </trkpt>
      <trkpt lat="60.11540735" lon="30.51347687">
        <ele>39.07</ele>
        <time>2026-08-20T10:03:37Z</time>
      </trkpt>
      <trkpt lat="60.11545924" lon="30.51357452">
        <ele>39.55</ele>
        <time>2026-08-20T10:03:57Z</time>
      </trkpt>
      <trkpt lat="60.11547717" lon="30.51359178">
        <ele>39.55</ele>
        <time>2026-08-20T10:04:13Z</time>
      </trkpt>
      <trkpt lat="60.11556468" lon="30.51364384">
        <ele>39.55</ele>
        <time>2026-08-20T10:04:35Z</time>
      </trkpt>
      <trkpt lat="60.11561221" lon="30.51374308">
        <ele>39.55</ele>
        <time>2026-08-20T10:04:57Z</time>
      </trkpt>
      <trkpt lat="60.11561899" lon="30.51376839">
        <ele>39.55</ele>
        <time>2026-08-20T10:05:16Z</time>
      </trkpt>
      <trkpt lat="60.11564414" lon="30.51381122">
        <ele>39.55</ele>
        <time>2026-08-20T10:05:36Z</time>
      </trkpt>
      <trkpt lat="60.11570357" lon="30.51394223">
        <ele>40.03</ele>
        <time>2026-08-20T10:05:52Z</time>
      </trkpt>
      <trkpt lat="60.11575378" lon="30.51404617">
        <ele>39.55</ele>
        <time>2026-08-20T10:06:10Z</time>
      </trkpt>
      <trkpt lat="60.11578135" lon="30.51410643">
        <ele>39.55</ele>
        <time>2026-08-20T10:06:28Z</time>
      </trkpt>
      <trkpt lat="60.11589417" lon="30.51421607">
        <ele>40.03</ele>
        <time>2026-08-20T10:06:51Z</time>
      </trkpt>
      <trkpt lat="60.11594069" lon="30.51431305">
        <ele>39.55</ele>
        <time>2026-08-20T10:07:10Z</time>
      </trkpt>
      <trkpt lat="60.1159614" lon="30.51434406">
        <ele>40.03</ele>
        <time>2026-08-20T10:07:31Z</time>
      </trkpt>
      <trkpt lat="60.11599216" lon="30.51437608">
        <ele>40.03</ele>
        <time>2026-08-20T10:07:47Z</time>
      </trkpt>
      <trkpt lat="60.1160189" lon="30.51440307">
        <ele>40.03</ele>
        <time>2026-08-20T10:08:09Z</time>
      </trkpt>
      <trkpt lat="60.1160204" lon="30.51441723">
        <ele>40.03</ele>
        <time>2026-08-20T10:08:30Z</time>
      </trkpt>
      <trkpt lat="60.11602686" lon="30.51439988">
        <ele>40.03</ele>
        <time>2026-08-20T10:08:51Z</time>
      </trkpt>
      <trkpt lat="60.11608654" lon="30.51446702">
        <ele>40.51</ele>
        <time>2026-08-20T10:09:10Z</time>
      </trkpt>
      <trkpt lat="60.11611395" lon="30.51463625">
        <ele>40.51</ele>
        <time>2026-08-20T10:09:28Z</time>
      </trkpt>
      <trkpt lat="60.11610489" lon="30.51475804">
        <ele>40.51</ele>
        <time>2026-08-20T10:09:48Z</time>
      </trkpt>
      <trkpt lat="60.11611294" lon="30.51481286">
        <ele>40.51</ele>
        <time>2026-08-20T10:10:05Z</time>
      </trkpt>
      <trkpt lat="60.11612551" lon="30.51484505">
        <ele>40.51</ele>
        <time>2026-08-20T10:10:20Z</time>
      </trkpt>
      <trkpt lat="60.11612979" lon="30.51493708">
        <ele>40.51</ele>
        <time>2026-08-20T10:10:50Z</time>
      </trkpt>
      <trkpt lat="60.1161748" lon="30.51503372">
        <ele>40.51</ele>
        <time>2026-08-20T10:11:07Z</time>
      </trkpt>
      <trkpt lat="60.11618821" lon="30.51520647">
        <ele>40.51</ele>
        <time>2026-08-20T10:11:30Z</time>
      </trkpt>
      <trkpt lat="60.11619156" lon="30.51524478">
        <ele>40.51</ele>
        <time>2026-08-20T10:11:59Z</time>
      </trkpt>
      <trkpt lat="60.11619575" lon="30.51524897">
        <ele>40.03</ele>
        <time>2026-08-20T10:12:26Z</time>
      </trkpt>
      <trkpt lat="60.11619684" lon="30.51525165">
        <ele>40.03</ele>
        <time>2026-08-20T10:13:05Z</time>
      </trkpt>
      <trkpt lat="60.11626264" lon="30.51532047">
        <ele>40.51</ele>
        <time>2026-08-20T10:13:44Z</time>
      </trkpt>
      <trkpt lat="60.11629525" lon="30.51541736">
        <ele>40.51</ele>
        <time>2026-08-20T10:14:10Z</time>
      </trkpt>
      <trkpt lat="60.11629097" lon="30.51543714">
        <ele>40.51</ele>
        <time>2026-08-20T10:14:49Z</time>
      </trkpt>
      <trkpt lat="60.11629717" lon="30.51551359">
        <ele>40.51</ele>
        <time>2026-08-20T10:15:12Z</time>
      </trkpt>
      <trkpt lat="60.11630321" lon="30.51554385">
        <ele>40.51</ele>
        <time>2026-08-20T10:15:31Z</time>
      </trkpt>
      <trkpt lat="60.11630975" lon="30.5155954">
        <ele>40.51</ele>
        <time>2026-08-20T10:15:56Z</time>
      </trkpt>
      <trkpt lat="60.11634286" lon="30.51574275">
        <ele>40.51</ele>
        <time>2026-08-20T10:16:14Z</time>
      </trkpt>
      <trkpt lat="60.11640597" lon="30.51597375">
        <ele>40.51</ele>
        <time>2026-08-20T10:16:34Z</time>
      </trkpt>
      <trkpt lat="60.11646129" lon="30.51603067">
        <ele>40.99</ele>
        <time>2026-08-20T10:16:52Z</time>
      </trkpt>
      <trkpt lat="60.1165265" lon="30.51618129">
        <ele>40.99</ele>
        <time>2026-08-20T10:17:11Z</time>
      </trkpt>
      <trkpt lat="60.11659339" lon="30.51632814">
        <ele>40.99</ele>
        <time>2026-08-20T10:17:33Z</time>
      </trkpt>
      <trkpt lat="60.11658568" lon="30.51644482">
        <ele>40.99</ele>
        <time>2026-08-20T10:17:48Z</time>
      </trkpt>
      <trkpt lat="60.11654838" lon="30.51666384">
        <ele>40.99</ele>
        <time>2026-08-20T10:18:10Z</time>
      </trkpt>
      <trkpt lat="60.11651041" lon="30.51674246">
        <ele>40.51</ele>
        <time>2026-08-20T10:18:30Z</time>
      </trkpt>
      <trkpt lat="60.11654117" lon="30.51676266">
        <ele>40.99</ele>
        <time>2026-08-20T10:18:41Z</time>
      </trkpt>
      <trkpt lat="60.11655274" lon="30.51689685">
        <ele>40.99</ele>
        <time>2026-08-20T10:18:56Z</time>
      </trkpt>
      <trkpt lat="60.11655274" lon="30.51694865">
        <ele>40.99</ele>
        <time>2026-08-20T10:19:16Z</time>
      </trkpt>
      <trkpt lat="60.11656431" lon="30.51696517">
        <ele>40.99</ele>
        <time>2026-08-20T10:19:34Z</time>
      </trkpt>
      <trkpt lat="60.11655752" lon="30.51697589">
        <ele>40.99</ele>
        <time>2026-08-20T10:19:59Z</time>
      </trkpt>
      <trkpt lat="60.11656255" lon="30.51697698">
        <ele>40.99</ele>
        <time>2026-08-20T10:20:32Z</time>
      </trkpt>
      <trkpt lat="60.11656079" lon="30.51697539">
        <ele>40.99</ele>
        <time>2026-08-20T10:21:11Z</time>
      </trkpt>
      <trkpt lat="60.11663446" lon="30.51702887">
        <ele>40.99</ele>
        <time>2026-08-20T10:21:34Z</time>
      </trkpt>
      <trkpt lat="60.11670378" lon="30.51710749">
        <ele>41.47</ele>
        <time>2026-08-20T10:21:56Z</time>
      </trkpt>
      <trkpt lat="60.11675131" lon="30.51721126">
        <ele>41.47</ele>
        <time>2026-08-20T10:22:13Z</time>
      </trkpt>
      <trkpt lat="60.11678081" lon="30.51735006">
        <ele>41.47</ele>
        <time>2026-08-20T10:22:30Z</time>
      </trkpt>
      <trkpt lat="60.11679363" lon="30.51748157">
        <ele>41.47</ele>
        <time>2026-08-20T10:22:50Z</time>
      </trkpt>
      <trkpt lat="60.11678517" lon="30.51751929">
        <ele>41.95</ele>
        <time>2026-08-20T10:23:09Z</time>
      </trkpt>
      <trkpt lat="60.11676916" lon="30.51757847">
        <ele>41.95</ele>
        <time>2026-08-20T10:23:22Z</time>
      </trkpt>
      <trkpt lat="60.11670261" lon="30.51774158">
        <ele>41.95</ele>
        <time>2026-08-20T10:23:46Z</time>
      </trkpt>
      <trkpt lat="60.11663253" lon="30.51795213">
        <ele>41.95</ele>
        <time>2026-08-20T10:24:12Z</time>
      </trkpt>
      <trkpt lat="60.11660135" lon="30.51802824">
        <ele>41.47</ele>
        <time>2026-08-20T10:24:36Z</time>
      </trkpt>
      <trkpt lat="60.11659482" lon="30.51802112">
        <ele>41.47</ele>
        <time>2026-08-20T10:25:04Z</time>
      </trkpt>
      <trkpt lat="60.11657344" lon="30.51803277">
        <ele>41.95</ele>
        <time>2026-08-20T10:25:23Z</time>
      </trkpt>
      <trkpt lat="60.11654779" lon="30.51816327">
        <ele>41.95</ele>
        <time>2026-08-20T10:25:42Z</time>
      </trkpt>
      <trkpt lat="60.11655735" lon="30.51826587">
        <ele>41.95</ele>
        <time>2026-08-20T10:26:02Z</time>
      </trkpt>
      <trkpt lat="60.11654545" lon="30.51827526">
        <ele>41.95</ele>
        <time>2026-08-20T10:26:30Z</time>
      </trkpt>
      <trkpt lat="60.11654318" lon="30.51828347">
        <ele>41.47</ele>
        <time>2026-08-20T10:26:52Z</time>
      </trkpt>
      <trkpt lat="60.11654888" lon="30.51828263">
        <ele>40.99</ele>
        <time>2026-08-20T10:27:10Z</time>
      </trkpt>
      <trkpt lat="60.11653991" lon="30.51828389">
        <ele>40.99</ele>
        <time>2026-08-20T10:27:36Z</time>
      </trkpt>
      <trkpt lat="60.11653681" lon="30.51829118">
        <ele>40.99</ele>
        <time>2026-08-20T10:28:00Z</time>
      </trkpt>
      <trkpt lat="60.11653916" lon="30.51828272">
        <ele>40.99</ele>
        <time>2026-08-20T10:28:35Z</time>
      </trkpt>
      <trkpt lat="60.11653606" lon="30.51829244">
        <ele>40.99</ele>
        <time>2026-08-20T10:29:08Z</time>
      </trkpt>
      <trkpt lat="60.11652919" lon="30.51829194">
        <ele>40.99</ele>
        <time>2026-08-20T10:29:38Z</time>
      </trkpt>
      <trkpt lat="60.11652566" lon="30.51837676">
        <ele>41.47</ele>
        <time>2026-08-20T10:29:58Z</time>
      </trkpt>
      <trkpt lat="60.11654201" lon="30.51857969">
        <ele>41.47</ele>
        <time>2026-08-20T10:30:18Z</time>
      </trkpt>
      <trkpt lat="60.11655659" lon="30.51860282">
        <ele>41.47</ele>
        <time>2026-08-20T10:30:41Z</time>
      </trkpt>
      <trkpt lat="60.1165664" lon="30.51861556">
        <ele>41.47</ele>
        <time>2026-08-20T10:30:56Z</time>
      </trkpt>
      <trkpt lat="60.11659255" lon="30.51864817">
        <ele>41.47</ele>
        <time>2026-08-20T10:31:16Z</time>
      </trkpt>
      <trkpt lat="60.11663974" lon="30.51864917">
        <ele>41.47</ele>
        <time>2026-08-20T10:31:35Z</time>
      </trkpt>
      <trkpt lat="60.11667134" lon="30.51865999">
        <ele>41.47</ele>
        <time>2026-08-20T10:31:52Z</time>
      </trkpt>
      <trkpt lat="60.11676086" lon="30.51858153">
        <ele>41.47</ele>
        <time>2026-08-20T10:32:14Z</time>
      </trkpt>
      <trkpt lat="60.11682297" lon="30.5186216">
        <ele>41.47</ele>
        <time>2026-08-20T10:32:37Z</time>
      </trkpt>
      <trkpt lat="60.11685164" lon="30.51866988">
        <ele>41.95</ele>
        <time>2026-08-20T10:33:00Z</time>
      </trkpt>
      <trkpt lat="60.11685214" lon="30.51867885">
        <ele>41.95</ele>
        <time>2026-08-20T10:33:27Z</time>
      </trkpt>
      <trkpt lat="60.11686329" lon="30.51866007">
        <ele>41.47</ele>
        <time>2026-08-20T10:33:49Z</time>
      </trkpt>
      <trkpt lat="60.11686161" lon="30.51869963">
        <ele>41.47</ele>
        <time>2026-08-20T10:34:11Z</time>
      </trkpt>
      <trkpt lat="60.11686086" lon="30.51870156">
        <ele>41.95</ele>
        <time>2026-08-20T10:34:39Z</time>
      </trkpt>
      <trkpt lat="60.11685859" lon="30.51870667">
        <ele>41.95</ele>
        <time>2026-08-20T10:35:18Z</time>
      </trkpt>
      <trkpt lat="60.11687519" lon="30.51866435">
        <ele>41.47</ele>
        <time>2026-08-20T10:35:42Z</time>
      </trkpt>
      <trkpt lat="60.11687351" lon="30.518691">
        <ele>41.95</ele>
        <time>2026-08-20T10:36:00Z</time>
      </trkpt>
      <trkpt lat="60.11683093" lon="30.51877557">
        <ele>42.44</ele>
        <time>2026-08-20T10:36:28Z</time>
      </trkpt>
      <trkpt lat="60.11676539" lon="30.51885344">
        <ele>42.44</ele>
        <time>2026-08-20T10:36:52Z</time>
      </trkpt>
      <trkpt lat="60.11676732" lon="30.51886518">
        <ele>41.95</ele>
        <time>2026-08-20T10:37:20Z</time>
      </trkpt>
      <trkpt lat="60.11676614" lon="30.51887289">
        <ele>42.44</ele>
        <time>2026-08-20T10:37:53Z</time>
      </trkpt>
      <trkpt lat="60.11682238" lon="30.51881078">
        <ele>42.44</ele>
        <time>2026-08-20T10:38:13Z</time>
      </trkpt>
      <trkpt lat="60.11690738" lon="30.51885906">
        <ele>42.44</ele>
        <time>2026-08-20T10:38:31Z</time>
      </trkpt>
      <trkpt lat="60.11698868" lon="30.51892946">
        <ele>42.44</ele>
        <time>2026-08-20T10:38:48Z</time>
      </trkpt>
      <trkpt lat="60.11702137" lon="30.51897925">
        <ele>42.44</ele>
        <time>2026-08-20T10:39:10Z</time>
      </trkpt>
      <trkpt lat="60.11706747" lon="30.51903097">
        <ele>42.44</ele>
        <time>2026-08-20T10:39:35Z</time>
      </trkpt>
      <trkpt lat="60.11712866" lon="30.51909509">
        <ele>42.44</ele>
        <time>2026-08-20T10:39:50Z</time>
      </trkpt>
      <trkpt lat="60.11714987" lon="30.51914672">
        <ele>42.44</ele>
        <time>2026-08-20T10:40:09Z</time>
      </trkpt>
      <trkpt lat="60.11714794" lon="30.51915267">
        <ele>42.44</ele>
        <time>2026-08-20T10:40:36Z</time>
      </trkpt>
      <trkpt lat="60.11719949" lon="30.51918226">
        <ele>42.44</ele>
        <time>2026-08-20T10:40:51Z</time>
      </trkpt>
      <trkpt lat="60.11719974" lon="30.51920087">
        <ele>42.44</ele>
        <time>2026-08-20T10:41:39Z</time>
      </trkpt>
      <trkpt lat="60.11717065" lon="30.51939684">
        <ele>42.44</ele>
        <time>2026-08-20T10:41:55Z</time>
      </trkpt>
      <trkpt lat="60.11711843" lon="30.51970999">
        <ele>42.44</ele>
        <time>2026-08-20T10:42:15Z</time>
      </trkpt>
      <trkpt lat="60.11715313" lon="30.52007276">
        <ele>42.44</ele>
        <time>2026-08-20T10:42:33Z</time>
      </trkpt>
      <trkpt lat="60.11720871" lon="30.52033947">
        <ele>42.92</ele>
        <time>2026-08-20T10:42:54Z</time>
      </trkpt>
      <trkpt lat="60.11731423" lon="30.52064264">
        <ele>43.4</ele>
        <time>2026-08-20T10:43:17Z</time>
      </trkpt>
      <trkpt lat="60.11742689" lon="30.52093567">
        <ele>43.4</ele>
        <time>2026-08-20T10:43:38Z</time>
      </trkpt>
      <trkpt lat="60.11742496" lon="30.52094447">
        <ele>43.4</ele>
        <time>2026-08-20T10:44:11Z</time>
      </trkpt>
      <trkpt lat="60.11742379" lon="30.52094246">
        <ele>43.4</ele>
        <time>2026-08-20T10:44:43Z</time>
      </trkpt>
      <trkpt lat="60.11742597" lon="30.52094397">
        <ele>42.92</ele>
        <time>2026-08-20T10:45:08Z</time>
      </trkpt>
      <trkpt lat="60.11742395" lon="30.52093919">
        <ele>43.88</ele>
        <time>2026-08-20T10:45:26Z</time>
      </trkpt>
      <trkpt lat="60.1174232" lon="30.52094188">
        <ele>43.4</ele>
        <time>2026-08-20T10:45:42Z</time>
      </trkpt>
      <trkpt lat="60.11742261" lon="30.52094112">
        <ele>43.88</ele>
        <time>2026-08-20T10:46:13Z</time>
      </trkpt>
      <trkpt lat="60.11742161" lon="30.52092662">
        <ele>43.88</ele>
        <time>2026-08-20T10:46:44Z</time>
      </trkpt>
      <trkpt lat="60.11742236" lon="30.52094389">
        <ele>43.4</ele>
        <time>2026-08-20T10:47:18Z</time>
      </trkpt>
      <trkpt lat="60.11740551" lon="30.52089452">
        <ele>43.4</ele>
        <time>2026-08-20T10:47:37Z</time>
      </trkpt>
      <trkpt lat="60.11737081" lon="30.52065329">
        <ele>43.4</ele>
        <time>2026-08-20T10:47:57Z</time>
      </trkpt>
      <trkpt lat="60.11738288" lon="30.52052856">
        <ele>43.4</ele>
        <time>2026-08-20T10:48:13Z</time>
      </trkpt>
      <trkpt lat="60.11735271" lon="30.52060266">
        <ele>43.4</ele>
        <time>2026-08-20T10:48:25Z</time>
      </trkpt>
      <trkpt lat="60.1172797" lon="30.52053519">
        <ele>43.4</ele>
        <time>2026-08-20T10:48:42Z</time>
      </trkpt>
      <trkpt lat="60.11719999" lon="30.52044466">
        <ele>43.4</ele>
        <time>2026-08-20T10:48:57Z</time>
      </trkpt>
      <trkpt lat="60.11714894" lon="30.52030317">
        <ele>42.92</ele>
        <time>2026-08-20T10:49:14Z</time>
      </trkpt>
      <trkpt lat="60.11713444" lon="30.520186">
        <ele>42.44</ele>
        <time>2026-08-20T10:49:41Z</time>
      </trkpt>
      <trkpt lat="60.11713679" lon="30.51994208">
        <ele>42.92</ele>
        <time>2026-08-20T10:50:01Z</time>
      </trkpt>
      <trkpt lat="60.11709128" lon="30.51979867">
        <ele>42.92</ele>
        <time>2026-08-20T10:50:17Z</time>
      </trkpt>
      <trkpt lat="60.11703126" lon="30.5196975">
        <ele>42.44</ele>
        <time>2026-08-20T10:50:36Z</time>
      </trkpt>
      <trkpt lat="60.1170005" lon="30.51945635">
        <ele>42.44</ele>
        <time>2026-08-20T10:50:58Z</time>
      </trkpt>
      <trkpt lat="60.11697871" lon="30.51941243">
        <ele>41.95</ele>
        <time>2026-08-20T10:51:17Z</time>
      </trkpt>
      <trkpt lat="60.11686379" lon="30.51915192">
        <ele>42.44</ele>
        <time>2026-08-20T10:51:40Z</time>
      </trkpt>
      <trkpt lat="60.11682725" lon="30.51906785">
        <ele>42.44</ele>
        <time>2026-08-20T10:52:00Z</time>
      </trkpt>
      <trkpt lat="60.11684644" lon="30.51887624">
        <ele>41.95</ele>
        <time>2026-08-20T10:52:20Z</time>
      </trkpt>
      <trkpt lat="60.11683705" lon="30.51886098">
        <ele>41.95</ele>
        <time>2026-08-20T10:52:42Z</time>
      </trkpt>
      <trkpt lat="60.11684317" lon="30.51885813">
        <ele>41.95</ele>
        <time>2026-08-20T10:52:57Z</time>
      </trkpt>
      <trkpt lat="60.11685558" lon="30.51885168">
        <ele>42.44</ele>
        <time>2026-08-20T10:53:31Z</time>
      </trkpt>
      <trkpt lat="60.11693311" lon="30.51890834">
        <ele>42.44</ele>
        <time>2026-08-20T10:53:44Z</time>
      </trkpt>
      <trkpt lat="60.11707569" lon="30.51904103">
        <ele>42.44</ele>
        <time>2026-08-20T10:54:06Z</time>
      </trkpt>
      <trkpt lat="60.1171414" lon="30.51908026">
        <ele>42.44</ele>
        <time>2026-08-20T10:54:28Z</time>
      </trkpt>
      <trkpt lat="60.11720368" lon="30.51920674">
        <ele>42.44</ele>
        <time>2026-08-20T10:54:50Z</time>
      </trkpt>
      <trkpt lat="60.11720669" lon="30.51925275">
        <ele>42.44</ele>
        <time>2026-08-20T10:55:06Z</time>
      </trkpt>
      <trkpt lat="60.11724668" lon="30.51929299">
        <ele>42.44</ele>
        <time>2026-08-20T10:55:29Z</time>
      </trkpt>
      <trkpt lat="60.11732027" lon="30.51941352">
        <ele>42.44</ele>
        <time>2026-08-20T10:55:46Z</time>
      </trkpt>
      <trkpt lat="60.11735497" lon="30.5194323">
        <ele>42.44</ele>
        <time>2026-08-20T10:56:04Z</time>
      </trkpt>
      <trkpt lat="60.11739428" lon="30.51950824">
        <ele>42.44</ele>
        <time>2026-08-20T10:56:21Z</time>
      </trkpt>
      <trkpt lat="60.11742504" lon="30.51954637">
        <ele>42.44</ele>
        <time>2026-08-20T10:56:37Z</time>
      </trkpt>
      <trkpt lat="60.11744457" lon="30.5195706">
        <ele>42.44</ele>
        <time>2026-08-20T10:56:54Z</time>
      </trkpt>
      <trkpt lat="60.11746251" lon="30.51968015">
        <ele>42.44</ele>
        <time>2026-08-20T10:57:12Z</time>
      </trkpt>
      <trkpt lat="60.11749637" lon="30.5197265">
        <ele>42.44</ele>
        <time>2026-08-20T10:57:30Z</time>
      </trkpt>
      <trkpt lat="60.11760274" lon="30.51981342">
        <ele>42.44</ele>
        <time>2026-08-20T10:57:49Z</time>
      </trkpt>
      <trkpt lat="60.11764834" lon="30.51988073">
        <ele>42.44</ele>
        <time>2026-08-20T10:58:09Z</time>
      </trkpt>
      <trkpt lat="60.11769628" lon="30.51994669">
        <ele>42.44</ele>
        <time>2026-08-20T10:58:31Z</time>
      </trkpt>
      <trkpt lat="60.11771078" lon="30.52000738">
        <ele>42.92</ele>
        <time>2026-08-20T10:58:49Z</time>
      </trkpt>
      <trkpt lat="60.11772285" lon="30.52003806">
        <ele>42.92</ele>
        <time>2026-08-20T10:59:09Z</time>
      </trkpt>
      <trkpt lat="60.1177283" lon="30.52005549">
        <ele>42.92</ele>
        <time>2026-08-20T10:59:33Z</time>
      </trkpt>
      <trkpt lat="60.11774087" lon="30.52008977">
        <ele>43.4</ele>
        <time>2026-08-20T10:59:55Z</time>
      </trkpt>
      <trkpt lat="60.11775361" lon="30.52011073">
        <ele>43.4</ele>
        <time>2026-08-20T11:00:16Z</time>
      </trkpt>
      <trkpt lat="60.11776937" lon="30.52013554">
        <ele>43.4</ele>
        <time>2026-08-20T11:00:32Z</time>
      </trkpt>
      <trkpt lat="60.11781338" lon="30.52019765">
        <ele>43.4</ele>
        <time>2026-08-20T11:00:52Z</time>
      </trkpt>
      <trkpt lat="60.11782419" lon="30.52022807">
        <ele>43.4</ele>
        <time>2026-08-20T11:01:09Z</time>
      </trkpt>
      <trkpt lat="60.1178262" lon="30.52023704">
        <ele>43.4</ele>
        <time>2026-08-20T11:01:37Z</time>
      </trkpt>
      <trkpt lat="60.1178397" lon="30.5202409">
        <ele>43.4</ele>
        <time>2026-08-20T11:02:39Z</time>
      </trkpt>
      <trkpt lat="60.11788429" lon="30.52027325">
        <ele>43.4</ele>
        <time>2026-08-20T11:03:05Z</time>
      </trkpt>
      <trkpt lat="60.11791941" lon="30.52038607">
        <ele>43.4</ele>
        <time>2026-08-20T11:03:25Z</time>
      </trkpt>
      <trkpt lat="60.11792829" lon="30.52042488">
        <ele>43.4</ele>
        <time>2026-08-20T11:03:43Z</time>
      </trkpt>
      <trkpt lat="60.11794019" lon="30.52045237">
        <ele>43.4</ele>
        <time>2026-08-20T11:04:05Z</time>
      </trkpt>
      <trkpt lat="60.11794631" lon="30.52048372">
        <ele>43.4</ele>
        <time>2026-08-20T11:04:28Z</time>
      </trkpt>
      <trkpt lat="60.11796048" lon="30.52050409">
        <ele>43.4</ele>
        <time>2026-08-20T11:04:46Z</time>
      </trkpt>
      <trkpt lat="60.11798479" lon="30.52054818">
        <ele>43.4</ele>
        <time>2026-08-20T11:05:09Z</time>
      </trkpt>
      <trkpt lat="60.1179987" lon="30.52055748">
        <ele>43.4</ele>
        <time>2026-08-20T11:05:32Z</time>
      </trkpt>
      <trkpt lat="60.11800507" lon="30.52056419">
        <ele>43.4</ele>
        <time>2026-08-20T11:06:01Z</time>
      </trkpt>
      <trkpt lat="60.11801999" lon="30.520575">
        <ele>43.88</ele>
        <time>2026-08-20T11:06:19Z</time>
      </trkpt>
      <trkpt lat="60.11803248" lon="30.52058917">
        <ele>43.88</ele>
        <time>2026-08-20T11:06:40Z</time>
      </trkpt>
      <trkpt lat="60.11803424" lon="30.52060182">
        <ele>43.88</ele>
        <time>2026-08-20T11:07:06Z</time>
      </trkpt>
      <trkpt lat="60.11804095" lon="30.52061289">
        <ele>43.88</ele>
        <time>2026-08-20T11:07:33Z</time>
      </trkpt>
      <trkpt lat="60.11805151" lon="30.52061884">
        <ele>43.88</ele>
        <time>2026-08-20T11:08:14Z</time>
      </trkpt>
      <trkpt lat="60.1180526" lon="30.52062437">
        <ele>43.88</ele>
        <time>2026-08-20T11:08:50Z</time>
      </trkpt>
      <trkpt lat="60.11805804" lon="30.52063267">
        <ele>43.88</ele>
        <time>2026-08-20T11:09:22Z</time>
      </trkpt>
      <trkpt lat="60.11805939" lon="30.52063585">
        <ele>44.36</ele>
        <time>2026-08-20T11:09:57Z</time>
      </trkpt>
      <trkpt lat="60.11806081" lon="30.52064507">
        <ele>44.36</ele>
        <time>2026-08-20T11:10:36Z</time>
      </trkpt>
      <trkpt lat="60.11806274" lon="30.52064692">
        <ele>44.36</ele>
        <time>2026-08-20T11:11:27Z</time>
      </trkpt>
      <trkpt lat="60.11806517" lon="30.52064893">
        <ele>43.88</ele>
        <time>2026-08-20T11:12:23Z</time>
      </trkpt>
      <trkpt lat="60.11806475" lon="30.52064457">
        <ele>43.88</ele>
        <time>2026-08-20T11:12:53Z</time>
      </trkpt>
      <trkpt lat="60.1180707" lon="30.52065664">
        <ele>44.36</ele>
        <time>2026-08-20T11:13:32Z</time>
      </trkpt>
      <trkpt lat="60.11807665" lon="30.52065924">
        <ele>44.36</ele>
        <time>2026-08-20T11:13:59Z</time>
      </trkpt>
      <trkpt lat="60.11808109" lon="30.52067558">
        <ele>43.88</ele>
        <time>2026-08-20T11:14:25Z</time>
      </trkpt>
      <trkpt lat="60.11808696" lon="30.52068883">
        <ele>43.88</ele>
        <time>2026-08-20T11:14:46Z</time>
      </trkpt>
      <trkpt lat="60.11810096" lon="30.52075102">
        <ele>43.88</ele>
        <time>2026-08-20T11:15:04Z</time>
      </trkpt>
      <trkpt lat="60.11811697" lon="30.52085764">
        <ele>43.88</ele>
        <time>2026-08-20T11:15:22Z</time>
      </trkpt>
      <trkpt lat="60.11818293" lon="30.52092503">
        <ele>44.36</ele>
        <time>2026-08-20T11:15:42Z</time>
      </trkpt>
      <trkpt lat="60.11823071" lon="30.52098018">
        <ele>44.36</ele>
        <time>2026-08-20T11:16:01Z</time>
      </trkpt>
      <trkpt lat="60.1182805" lon="30.52103274">
        <ele>44.84</ele>
        <time>2026-08-20T11:16:18Z</time>
      </trkpt>
      <trkpt lat="60.11828427" lon="30.52105118">
        <ele>44.84</ele>
        <time>2026-08-20T11:16:41Z</time>
      </trkpt>
      <trkpt lat="60.11831805" lon="30.52113508">
        <ele>44.84</ele>
        <time>2026-08-20T11:16:58Z</time>
      </trkpt>
      <trkpt lat="60.11835309" lon="30.52124899">
        <ele>44.84</ele>
        <time>2026-08-20T11:17:17Z</time>
      </trkpt>
      <trkpt lat="60.11841478" lon="30.52132795">
        <ele>45.32</ele>
        <time>2026-08-20T11:17:37Z</time>
      </trkpt>
      <trkpt lat="60.11845535" lon="30.52135544">
        <ele>45.32</ele>
        <time>2026-08-20T11:18:00Z</time>
      </trkpt>
      <trkpt lat="60.11847856" lon="30.52129786">
        <ele>45.32</ele>
        <time>2026-08-20T11:18:19Z</time>
      </trkpt>
      <trkpt lat="60.11848326" lon="30.52130179">
        <ele>45.32</ele>
        <time>2026-08-20T11:18:55Z</time>
      </trkpt>
      <trkpt lat="60.11849089" lon="30.52130624">
        <ele>45.32</ele>
        <time>2026-08-20T11:19:31Z</time>
      </trkpt>
      <trkpt lat="60.11849156" lon="30.52131143">
        <ele>45.32</ele>
        <time>2026-08-20T11:20:07Z</time>
      </trkpt>
      <trkpt lat="60.11854889" lon="30.52128126">
        <ele>44.84</ele>
        <time>2026-08-20T11:20:26Z</time>
      </trkpt>
      <trkpt lat="60.11863179" lon="30.52131554">
        <ele>45.32</ele>
        <time>2026-08-20T11:20:46Z</time>
      </trkpt>
      <trkpt lat="60.1187353" lon="30.52128185">
        <ele>45.8</ele>
        <time>2026-08-20T11:21:06Z</time>
      </trkpt>
      <trkpt lat="60.11873866" lon="30.52128436">
        <ele>45.8</ele>
        <time>2026-08-20T11:21:47Z</time>
      </trkpt>
      <trkpt lat="60.11873178" lon="30.52130238">
        <ele>45.32</ele>
        <time>2026-08-20T11:22:20Z</time>
      </trkpt>
      <trkpt lat="60.11875936" lon="30.52132694">
        <ele>45.8</ele>
        <time>2026-08-20T11:22:39Z</time>
      </trkpt>
      <trkpt lat="60.11889515" lon="30.5213681">
        <ele>45.8</ele>
        <time>2026-08-20T11:23:02Z</time>
      </trkpt>
      <trkpt lat="60.11903143" lon="30.52142853">
        <ele>45.8</ele>
        <time>2026-08-20T11:23:24Z</time>
      </trkpt>
      <trkpt lat="60.11913428" lon="30.52160773">
        <ele>46.28</ele>
        <time>2026-08-20T11:23:47Z</time>
      </trkpt>
      <trkpt lat="60.11910687" lon="30.52177655">
        <ele>47.72</ele>
        <time>2026-08-20T11:24:06Z</time>
      </trkpt>
      <trkpt lat="60.11905306" lon="30.52175056">
        <ele>47.24</ele>
        <time>2026-08-20T11:24:24Z</time>
      </trkpt>
      <trkpt lat="60.11902817" lon="30.52185374">
        <ele>48.2</ele>
        <time>2026-08-20T11:24:45Z</time>
      </trkpt>
      <trkpt lat="60.11902557" lon="30.52195525">
        <ele>49.16</ele>
        <time>2026-08-20T11:25:05Z</time>
      </trkpt>
      <trkpt lat="60.119028" lon="30.52194905">
        <ele>49.16</ele>
        <time>2026-08-20T11:25:06Z</time>
      </trkpt>
      <trkpt lat="60.11907971" lon="30.52182466">
        <ele>48.68</ele>
        <time>2026-08-20T11:25:18Z</time>
      </trkpt>
      <trkpt lat="60.11918818" lon="30.52164906">
        <ele>46.76</ele>
        <time>2026-08-20T11:25:40Z</time>
      </trkpt>
      <trkpt lat="60.11919396" lon="30.52165836">
        <ele>46.76</ele>
        <time>2026-08-20T11:26:13Z</time>
      </trkpt>
      <trkpt lat="60.11920209" lon="30.52167035">
        <ele>46.28</ele>
        <time>2026-08-20T11:26:36Z</time>
      </trkpt>
      <trkpt lat="60.11920159" lon="30.52167479">
        <ele>46.28</ele>
        <time>2026-08-20T11:27:08Z</time>
      </trkpt>
      <trkpt lat="60.1192186" lon="30.52165962">
        <ele>46.76</ele>
        <time>2026-08-20T11:27:29Z</time>
      </trkpt>
      <trkpt lat="60.11925775" lon="30.52159139">
        <ele>46.76</ele>
        <time>2026-08-20T11:27:35Z</time>
      </trkpt>
      <trkpt lat="60.11928138" lon="30.52154713">
        <ele>46.76</ele>
        <time>2026-08-20T11:27:38Z</time>
      </trkpt>
      <trkpt lat="60.1193041" lon="30.52152492">
        <ele>46.76</ele>
        <time>2026-08-20T11:27:40Z</time>
      </trkpt>
      <trkpt lat="60.11943226" lon="30.52126676">
        <ele>47.24</ele>
        <time>2026-08-20T11:27:54Z</time>
      </trkpt>
      <trkpt lat="60.11952857" lon="30.52102167">
        <ele>47.72</ele>
        <time>2026-08-20T11:28:14Z</time>
      </trkpt>
      <trkpt lat="60.11970417" lon="30.52077256">
        <ele>49.65</ele>
        <time>2026-08-20T11:28:42Z</time>
      </trkpt>
      <trkpt lat="60.11970081" lon="30.52081464">
        <ele>50.13</ele>
        <time>2026-08-20T11:29:07Z</time>
      </trkpt>
      <trkpt lat="60.11978463" lon="30.52092503">
        <ele>49.16</ele>
        <time>2026-08-20T11:29:29Z</time>
      </trkpt>
      <trkpt lat="60.1198589" lon="30.52105126">
        <ele>48.2</ele>
        <time>2026-08-20T11:29:53Z</time>
      </trkpt>
      <trkpt lat="60.11986745" lon="30.52108655">
        <ele>48.68</ele>
        <time>2026-08-20T11:30:18Z</time>
      </trkpt>
      <trkpt lat="60.11996593" lon="30.52129995">
        <ele>48.68</ele>
        <time>2026-08-20T11:30:39Z</time>
      </trkpt>
      <trkpt lat="60.12002855" lon="30.52134362">
        <ele>49.16</ele>
        <time>2026-08-20T11:30:58Z</time>
      </trkpt>
      <trkpt lat="60.12012661" lon="30.52147253">
        <ele>49.65</ele>
        <time>2026-08-20T11:31:19Z</time>
      </trkpt>
      <trkpt lat="60.12021957" lon="30.52158485">
        <ele>49.65</ele>
        <time>2026-08-20T11:31:39Z</time>
      </trkpt>
      <trkpt lat="60.12033926" lon="30.52160799">
        <ele>50.13</ele>
        <time>2026-08-20T11:31:59Z</time>
      </trkpt>
      <trkpt lat="60.12043146" lon="30.52167295">
        <ele>49.65</ele>
        <time>2026-08-20T11:32:16Z</time>
      </trkpt>
      <trkpt lat="60.12046097" lon="30.52173866">
        <ele>50.61</ele>
        <time>2026-08-20T11:32:34Z</time>
      </trkpt>
      <trkpt lat="60.12050816" lon="30.52176406">
        <ele>50.61</ele>
        <time>2026-08-20T11:32:52Z</time>
      </trkpt>
      <trkpt lat="60.12064235" lon="30.52161695">
        <ele>50.61</ele>
        <time>2026-08-20T11:33:14Z</time>
      </trkpt>
      <trkpt lat="60.12078644" lon="30.52149466">
        <ele>51.57</ele>
        <time>2026-08-20T11:33:35Z</time>
      </trkpt>
      <trkpt lat="60.12092457" lon="30.52147455">
        <ele>51.57</ele>
        <time>2026-08-20T11:33:53Z</time>
      </trkpt>
      <trkpt lat="60.12096464" lon="30.52152492">
        <ele>51.57</ele>
        <time>2026-08-20T11:34:15Z</time>
      </trkpt>
      <trkpt lat="60.12100185" lon="30.52154487">
        <ele>51.57</ele>
        <time>2026-08-20T11:34:32Z</time>
      </trkpt>
      <trkpt lat="60.12103396" lon="30.52162483">
        <ele>52.05</ele>
        <time>2026-08-20T11:34:49Z</time>
      </trkpt>
      <trkpt lat="60.12110478" lon="30.52165836">
        <ele>52.05</ele>
        <time>2026-08-20T11:35:07Z</time>
      </trkpt>
      <trkpt lat="60.12113378" lon="30.52165853">
        <ele>52.53</ele>
        <time>2026-08-20T11:35:32Z</time>
      </trkpt>
      <trkpt lat="60.12113973" lon="30.52166599">
        <ele>52.53</ele>
        <time>2026-08-20T11:36:12Z</time>
      </trkpt>
      <trkpt lat="60.12113781" lon="30.52169826">
        <ele>52.53</ele>
        <time>2026-08-20T11:36:47Z</time>
      </trkpt>
      <trkpt lat="60.12115197" lon="30.52172408">
        <ele>52.53</ele>
        <time>2026-08-20T11:37:22Z</time>
      </trkpt>
      <trkpt lat="60.12114217" lon="30.52172843">
        <ele>52.53</ele>
        <time>2026-08-20T11:38:06Z</time>
      </trkpt>
      <trkpt lat="60.12114049" lon="30.52174713">
        <ele>52.53</ele>
        <time>2026-08-20T11:38:56Z</time>
      </trkpt>
      <trkpt lat="60.12114778" lon="30.52174469">
        <ele>52.53</ele>
        <time>2026-08-20T11:39:28Z</time>
      </trkpt>
      <trkpt lat="60.12114351" lon="30.52177227">
        <ele>52.53</ele>
        <time>2026-08-20T11:40:03Z</time>
      </trkpt>
      <trkpt lat="60.12110428" lon="30.52190512">
        <ele>52.53</ele>
        <time>2026-08-20T11:40:22Z</time>
      </trkpt>
      <trkpt lat="60.12103907" lon="30.52202993">
        <ele>52.05</ele>
        <time>2026-08-20T11:40:44Z</time>
      </trkpt>
      <trkpt lat="60.12102256" lon="30.52225834">
        <ele>52.05</ele>
        <time>2026-08-20T11:41:06Z</time>
      </trkpt>
      <trkpt lat="60.12103831" lon="30.52229212">
        <ele>52.05</ele>
        <time>2026-08-20T11:41:27Z</time>
      </trkpt>
      <trkpt lat="60.12104049" lon="30.52230536">
        <ele>52.05</ele>
        <time>2026-08-20T11:41:48Z</time>
      </trkpt>
      <trkpt lat="60.12104888" lon="30.52232598">
        <ele>52.05</ele>
        <time>2026-08-20T11:42:05Z</time>
      </trkpt>
      <trkpt lat="60.12106095" lon="30.52236764">
        <ele>52.05</ele>
        <time>2026-08-20T11:42:27Z</time>
      </trkpt>
      <trkpt lat="60.12107871" lon="30.5224269">
        <ele>52.53</ele>
        <time>2026-08-20T11:42:45Z</time>
      </trkpt>
      <trkpt lat="60.12109431" lon="30.5224989">
        <ele>52.53</ele>
        <time>2026-08-20T11:43:00Z</time>
      </trkpt>
      <trkpt lat="60.12108014" lon="30.52254952">
        <ele>52.53</ele>
        <time>2026-08-20T11:43:18Z</time>
      </trkpt>
      <trkpt lat="60.12108416" lon="30.52261884">
        <ele>52.53</ele>
        <time>2026-08-20T11:43:36Z</time>
      </trkpt>
      <trkpt lat="60.12109129" lon="30.52265723">
        <ele>52.53</ele>
        <time>2026-08-20T11:43:49Z</time>
      </trkpt>
      <trkpt lat="60.12108165" lon="30.52273619">
        <ele>52.53</ele>
        <time>2026-08-20T11:44:06Z</time>
      </trkpt>
      <trkpt lat="60.12108701" lon="30.52276276">
        <ele>53.01</ele>
        <time>2026-08-20T11:44:27Z</time>
      </trkpt>
      <trkpt lat="60.12109665" lon="30.52276226">
        <ele>52.05</ele>
        <time>2026-08-20T11:44:52Z</time>
      </trkpt>
      <trkpt lat="60.12110638" lon="30.52277617">
        <ele>52.05</ele>
        <time>2026-08-20T11:45:27Z</time>
      </trkpt>
      <trkpt lat="60.12110864" lon="30.52279503">
        <ele>52.53</ele>
        <time>2026-08-20T11:45:44Z</time>
      </trkpt>
      <trkpt lat="60.1211099" lon="30.522804">
        <ele>52.53</ele>
        <time>2026-08-20T11:46:07Z</time>
      </trkpt>
      <trkpt lat="60.1211099" lon="30.52279612">
        <ele>52.53</ele>
        <time>2026-08-20T11:46:27Z</time>
      </trkpt>
      <trkpt lat="60.12109615" lon="30.52282286">
        <ele>52.53</ele>
        <time>2026-08-20T11:46:46Z</time>
      </trkpt>
      <trkpt lat="60.12103957" lon="30.52285069">
        <ele>52.53</ele>
        <time>2026-08-20T11:47:07Z</time>
      </trkpt>
      <trkpt lat="60.12098509" lon="30.52283635">
        <ele>52.53</ele>
        <time>2026-08-20T11:47:33Z</time>
      </trkpt>
      <trkpt lat="60.1209747" lon="30.52275002">
        <ele>52.53</ele>
        <time>2026-08-20T11:48:03Z</time>
      </trkpt>
      <trkpt lat="60.12097679" lon="30.52300944">
        <ele>52.53</ele>
        <time>2026-08-20T11:48:31Z</time>
      </trkpt>
      <trkpt lat="60.12102038" lon="30.52325687">
        <ele>52.53</ele>
        <time>2026-08-20T11:48:55Z</time>
      </trkpt>
      <trkpt lat="60.12103261" lon="30.52332929">
        <ele>53.01</ele>
        <time>2026-08-20T11:49:14Z</time>
      </trkpt>
      <trkpt lat="60.12103396" lon="30.52333927">
        <ele>53.01</ele>
        <time>2026-08-20T11:49:37Z</time>
      </trkpt>
      <trkpt lat="60.12104167" lon="30.52337975">
        <ele>53.01</ele>
        <time>2026-08-20T11:49:55Z</time>
      </trkpt>
      <trkpt lat="60.12105499" lon="30.52341823">
        <ele>53.01</ele>
        <time>2026-08-20T11:50:13Z</time>
      </trkpt>
      <trkpt lat="60.12105198" lon="30.52342258">
        <ele>53.01</ele>
        <time>2026-08-20T11:50:32Z</time>
      </trkpt>
      <trkpt lat="60.12107067" lon="30.52344052">
        <ele>53.01</ele>
        <time>2026-08-20T11:50:53Z</time>
      </trkpt>
      <trkpt lat="60.12107369" lon="30.52343365">
        <ele>53.01</ele>
        <time>2026-08-20T11:51:20Z</time>
      </trkpt>
      <trkpt lat="60.12107251" lon="30.52344505">
        <ele>53.01</ele>
        <time>2026-08-20T11:51:41Z</time>
      </trkpt>
      <trkpt lat="60.12108425" lon="30.52350548">
        <ele>52.53</ele>
        <time>2026-08-20T11:52:03Z</time>
      </trkpt>
      <trkpt lat="60.12109674" lon="30.52356382">
        <ele>53.01</ele>
        <time>2026-08-20T11:52:27Z</time>
      </trkpt>
      <trkpt lat="60.12109657" lon="30.52357228">
        <ele>53.01</ele>
        <time>2026-08-20T11:52:57Z</time>
      </trkpt>
      <trkpt lat="60.12107779" lon="30.52357924">
        <ele>53.01</ele>
        <time>2026-08-20T11:53:14Z</time>
      </trkpt>
      <trkpt lat="60.12106975" lon="30.52358855">
        <ele>53.01</ele>
        <time>2026-08-20T11:53:38Z</time>
      </trkpt>
      <trkpt lat="60.12106304" lon="30.5236033">
        <ele>53.01</ele>
        <time>2026-08-20T11:54:00Z</time>
      </trkpt>
      <trkpt lat="60.12101669" lon="30.52373355">
        <ele>53.01</ele>
        <time>2026-08-20T11:54:28Z</time>
      </trkpt>
      <trkpt lat="60.12104477" lon="30.52374286">
        <ele>53.01</ele>
        <time>2026-08-20T11:55:06Z</time>
      </trkpt>
      <trkpt lat="60.12112674" lon="30.5237815">
        <ele>54.45</ele>
        <time>2026-08-20T11:55:31Z</time>
      </trkpt>
      <trkpt lat="60.12117066" lon="30.52377387">
        <ele>56.86</ele>
        <time>2026-08-20T11:55:53Z</time>
      </trkpt>
      <trkpt lat="60.12112146" lon="30.52384646">
        <ele>53.97</ele>
        <time>2026-08-20T11:56:08Z</time>
      </trkpt>
      <trkpt lat="60.12109749" lon="30.52389306">
        <ele>53.49</ele>
        <time>2026-08-20T11:56:30Z</time>
      </trkpt>
      <trkpt lat="60.121099" lon="30.52389323">
        <ele>53.49</ele>
        <time>2026-08-20T11:57:06Z</time>
      </trkpt>
      <trkpt lat="60.12109908" lon="30.52389683">
        <ele>53.49</ele>
        <time>2026-08-20T11:57:45Z</time>
      </trkpt>
      <trkpt lat="60.12110084" lon="30.52389859">
        <ele>53.49</ele>
        <time>2026-08-20T11:58:30Z</time>
      </trkpt>
      <trkpt lat="60.12110587" lon="30.52390069">
        <ele>53.01</ele>
        <time>2026-08-20T11:58:46Z</time>
      </trkpt>
      <trkpt lat="60.12108626" lon="30.52391209">
        <ele>53.01</ele>
        <time>2026-08-20T11:59:11Z</time>
      </trkpt>
      <trkpt lat="60.12108701" lon="30.52391158">
        <ele>53.01</ele>
        <time>2026-08-20T11:59:18Z</time>
      </trkpt>
      <trkpt lat="60.12103999" lon="30.52392139">
        <ele>53.01</ele>
        <time>2026-08-20T11:59:35Z</time>
      </trkpt>
      <trkpt lat="60.12098936" lon="30.5238478">
        <ele>53.01</ele>
        <time>2026-08-20T11:59:53Z</time>
      </trkpt>
      <trkpt lat="60.12092357" lon="30.52382089">
        <ele>53.01</ele>
        <time>2026-08-20T12:00:09Z</time>
      </trkpt>
      <trkpt lat="60.12089817" lon="30.52373162">
        <ele>52.53</ele>
        <time>2026-08-20T12:00:24Z</time>
      </trkpt>
      <trkpt lat="60.12088836" lon="30.52371243">
        <ele>53.01</ele>
        <time>2026-08-20T12:00:36Z</time>
      </trkpt>
      <trkpt lat="60.12085668" lon="30.52372433">
        <ele>52.53</ele>
        <time>2026-08-20T12:01:00Z</time>
      </trkpt>
      <trkpt lat="60.12082097" lon="30.52372827">
        <ele>52.53</ele>
        <time>2026-08-20T12:01:15Z</time>
      </trkpt>
      <trkpt lat="60.12081091" lon="30.52385132">
        <ele>52.53</ele>
        <time>2026-08-20T12:01:35Z</time>
      </trkpt>
      <trkpt lat="60.1208721" lon="30.52397093">
        <ele>52.53</ele>
        <time>2026-08-20T12:01:51Z</time>
      </trkpt>
      <trkpt lat="60.12082541" lon="30.52409314">
        <ele>52.53</ele>
        <time>2026-08-20T12:02:12Z</time>
      </trkpt>
      <trkpt lat="60.12071745" lon="30.52411803">
        <ele>51.57</ele>
        <time>2026-08-20T12:02:26Z</time>
      </trkpt>
      <trkpt lat="60.1206929" lon="30.52412725">
        <ele>52.05</ele>
        <time>2026-08-20T12:02:49Z</time>
      </trkpt>
      <trkpt lat="60.12069189" lon="30.52411325">
        <ele>52.05</ele>
        <time>2026-08-20T12:03:05Z</time>
      </trkpt>
      <trkpt lat="60.12069264" lon="30.5240462">
        <ele>52.05</ele>
        <time>2026-08-20T12:03:21Z</time>
      </trkpt>
      <trkpt lat="60.12067957" lon="30.52403857">
        <ele>51.57</ele>
        <time>2026-08-20T12:03:58Z</time>
      </trkpt>
      <trkpt lat="60.12068686" lon="30.52402625">
        <ele>51.57</ele>
        <time>2026-08-20T12:04:14Z</time>
      </trkpt>
      <trkpt lat="60.1207017" lon="30.52401158">
        <ele>51.57</ele>
        <time>2026-08-20T12:04:36Z</time>
      </trkpt>
      <trkpt lat="60.12072114" lon="30.52396338">
        <ele>51.57</ele>
        <time>2026-08-20T12:04:55Z</time>
      </trkpt>
      <trkpt lat="60.12073045" lon="30.52393874">
        <ele>51.57</ele>
        <time>2026-08-20T12:05:09Z</time>
      </trkpt>
      <trkpt lat="60.1207364" lon="30.52390362">
        <ele>52.05</ele>
        <time>2026-08-20T12:05:22Z</time>
      </trkpt>
      <trkpt lat="60.12073531" lon="30.52381628">
        <ele>52.05</ele>
        <time>2026-08-20T12:05:36Z</time>
      </trkpt>
      <trkpt lat="60.12072341" lon="30.52378125">
        <ele>52.05</ele>
        <time>2026-08-20T12:05:48Z</time>
      </trkpt>
      <trkpt lat="60.12072508" lon="30.52375317">
        <ele>52.05</ele>
        <time>2026-08-20T12:06:00Z</time>
      </trkpt>
      <trkpt lat="60.12073824" lon="30.52373439">
        <ele>52.05</ele>
        <time>2026-08-20T12:06:16Z</time>
      </trkpt>
      <trkpt lat="60.12074746" lon="30.52364395">
        <ele>52.05</ele>
        <time>2026-08-20T12:06:32Z</time>
      </trkpt>
      <trkpt lat="60.12074428" lon="30.52357245">
        <ele>52.05</ele>
        <time>2026-08-20T12:06:48Z</time>
      </trkpt>
      <trkpt lat="60.12074746" lon="30.52356625">
        <ele>52.05</ele>
        <time>2026-08-20T12:07:03Z</time>
      </trkpt>
      <trkpt lat="60.12076104" lon="30.52354152">
        <ele>52.05</ele>
        <time>2026-08-20T12:07:24Z</time>
      </trkpt>
      <trkpt lat="60.12076456" lon="30.52351403">
        <ele>52.05</ele>
        <time>2026-08-20T12:07:53Z</time>
      </trkpt>
      <trkpt lat="60.12075358" lon="30.52350137">
        <ele>52.05</ele>
        <time>2026-08-20T12:08:01Z</time>
      </trkpt>
      <trkpt lat="60.12072349" lon="30.52350347">
        <ele>52.05</ele>
        <time>2026-08-20T12:08:20Z</time>
      </trkpt>
      <trkpt lat="60.12072106" lon="30.52349433">
        <ele>52.05</ele>
        <time>2026-08-20T12:08:40Z</time>
      </trkpt>
      <trkpt lat="60.12072768" lon="30.52347313">
        <ele>52.53</ele>
        <time>2026-08-20T12:09:05Z</time>
      </trkpt>
      <trkpt lat="60.12072726" lon="30.52344589">
        <ele>52.05</ele>
        <time>2026-08-20T12:09:26Z</time>
      </trkpt>
      <trkpt lat="60.12072659" lon="30.52341856">
        <ele>51.57</ele>
        <time>2026-08-20T12:09:44Z</time>
      </trkpt>
      <trkpt lat="60.12073204" lon="30.52339425">
        <ele>51.57</ele>
        <time>2026-08-20T12:10:02Z</time>
      </trkpt>
      <trkpt lat="60.12072584" lon="30.52337565">
        <ele>52.05</ele>
        <time>2026-08-20T12:10:25Z</time>
      </trkpt>
      <trkpt lat="60.12070999" lon="30.5233215">
        <ele>51.57</ele>
        <time>2026-08-20T12:10:36Z</time>
      </trkpt>
      <trkpt lat="60.1207084" lon="30.52330574">
        <ele>51.57</ele>
        <time>2026-08-20T12:10:47Z</time>
      </trkpt>
      <trkpt lat="60.12072223" lon="30.52325687">
        <ele>51.57</ele>
        <time>2026-08-20T12:11:04Z</time>
      </trkpt>
      <trkpt lat="60.12070371" lon="30.52321815">
        <ele>52.05</ele>
        <time>2026-08-20T12:11:23Z</time>
      </trkpt>
      <trkpt lat="60.12066783" lon="30.52315369">
        <ele>51.57</ele>
        <time>2026-08-20T12:11:40Z</time>
      </trkpt>
      <trkpt lat="60.12065317" lon="30.5230625">
        <ele>51.57</ele>
        <time>2026-08-20T12:12:00Z</time>
      </trkpt>
      <trkpt lat="60.12063674" lon="30.52298974">
        <ele>51.57</ele>
        <time>2026-08-20T12:12:19Z</time>
      </trkpt>
      <trkpt lat="60.12062844" lon="30.52297105">
        <ele>51.57</ele>
        <time>2026-08-20T12:12:45Z</time>
      </trkpt>
      <trkpt lat="60.12062006" lon="30.5229563">
        <ele>51.57</ele>
        <time>2026-08-20T12:13:35Z</time>
      </trkpt>
      <trkpt lat="60.12061913" lon="30.52287508">
        <ele>51.57</ele>
        <time>2026-08-20T12:13:55Z</time>
      </trkpt>
      <trkpt lat="60.12062299" lon="30.52288765">
        <ele>51.57</ele>
        <time>2026-08-20T12:14:19Z</time>
      </trkpt>
      <trkpt lat="60.1206214" lon="30.52288346">
        <ele>51.57</ele>
        <time>2026-08-20T12:14:37Z</time>
      </trkpt>
      <trkpt lat="60.12062551" lon="30.52279972">
        <ele>51.57</ele>
        <time>2026-08-20T12:14:55Z</time>
      </trkpt>
      <trkpt lat="60.12063825" lon="30.52276209">
        <ele>51.57</ele>
        <time>2026-08-20T12:15:13Z</time>
      </trkpt>
      <trkpt lat="60.12064034" lon="30.52274357">
        <ele>52.05</ele>
        <time>2026-08-20T12:15:40Z</time>
      </trkpt>
      <trkpt lat="60.12063514" lon="30.52268565">
        <ele>51.57</ele>
        <time>2026-08-20T12:15:55Z</time>
      </trkpt>
      <trkpt lat="60.12063674" lon="30.52266">
        <ele>51.57</ele>
        <time>2026-08-20T12:16:15Z</time>
      </trkpt>
      <trkpt lat="60.12065618" lon="30.5225678">
        <ele>51.57</ele>
        <time>2026-08-20T12:16:34Z</time>
      </trkpt>
      <trkpt lat="60.12069239" lon="30.5224269">
        <ele>52.05</ele>
        <time>2026-08-20T12:16:55Z</time>
      </trkpt>
      <trkpt lat="60.12070689" lon="30.52241248">
        <ele>52.05</ele>
        <time>2026-08-20T12:17:13Z</time>
      </trkpt>
      <trkpt lat="60.12070639" lon="30.52241617">
        <ele>51.57</ele>
        <time>2026-08-20T12:17:44Z</time>
      </trkpt>
      <trkpt lat="60.1207162" lon="30.52241533">
        <ele>52.53</ele>
        <time>2026-08-20T12:18:09Z</time>
      </trkpt>
      <trkpt lat="60.12071561" lon="30.52241676">
        <ele>52.53</ele>
        <time>2026-08-20T12:18:33Z</time>
      </trkpt>
      <trkpt lat="60.12075299" lon="30.52229673">
        <ele>52.53</ele>
        <time>2026-08-20T12:18:50Z</time>
      </trkpt>
      <trkpt lat="60.12073036" lon="30.52209556">
        <ele>52.53</ele>
        <time>2026-08-20T12:19:12Z</time>
      </trkpt>
      <trkpt lat="60.12067496" lon="30.52190605">
        <ele>52.53</ele>
        <time>2026-08-20T12:19:33Z</time>
      </trkpt>
      <trkpt lat="60.12063749" lon="30.52180169">
        <ele>52.05</ele>
        <time>2026-08-20T12:19:52Z</time>
      </trkpt>
      <trkpt lat="60.12060639" lon="30.52182273">
        <ele>52.05</ele>
        <time>2026-08-20T12:20:11Z</time>
      </trkpt>
      <trkpt lat="60.12047966" lon="30.52183572">
        <ele>51.57</ele>
        <time>2026-08-20T12:20:32Z</time>
      </trkpt>
      <trkpt lat="60.12038436" lon="30.52188434">
        <ele>51.57</ele>
        <time>2026-08-20T12:20:51Z</time>
      </trkpt>
      <trkpt lat="60.12031261" lon="30.52186875">
        <ele>51.09</ele>
        <time>2026-08-20T12:21:09Z</time>
      </trkpt>
      <trkpt lat="60.12034588" lon="30.52195366">
        <ele>51.09</ele>
        <time>2026-08-20T12:21:32Z</time>
      </trkpt>
      <trkpt lat="60.12034748" lon="30.52197159">
        <ele>50.61</ele>
        <time>2026-08-20T12:21:50Z</time>
      </trkpt>
      <trkpt lat="60.12035049" lon="30.52197159">
        <ele>50.61</ele>
        <time>2026-08-20T12:22:18Z</time>
      </trkpt>
      <trkpt lat="60.12035695" lon="30.52196623">
        <ele>50.61</ele>
        <time>2026-08-20T12:22:43Z</time>
      </trkpt>
      <trkpt lat="60.12036583" lon="30.52198626">
        <ele>51.09</ele>
        <time>2026-08-20T12:23:05Z</time>
      </trkpt>
      <trkpt lat="60.1203629" lon="30.52204502">
        <ele>51.09</ele>
        <time>2026-08-20T12:23:26Z</time>
      </trkpt>
      <trkpt lat="60.12039442" lon="30.52213999">
        <ele>51.09</ele>
        <time>2026-08-20T12:23:46Z</time>
      </trkpt>
      <trkpt lat="60.12039869" lon="30.52216706">
        <ele>51.09</ele>
        <time>2026-08-20T12:24:09Z</time>
      </trkpt>
      <trkpt lat="60.12037975" lon="30.52220386">
        <ele>50.61</ele>
        <time>2026-08-20T12:24:26Z</time>
      </trkpt>
      <trkpt lat="60.12038201" lon="30.52221199">
        <ele>51.09</ele>
        <time>2026-08-20T12:24:57Z</time>
      </trkpt>
      <trkpt lat="60.12039148" lon="30.52220872">
        <ele>50.61</ele>
        <time>2026-08-20T12:25:23Z</time>
      </trkpt>
      <trkpt lat="60.12039266" lon="30.52221894">
        <ele>51.09</ele>
        <time>2026-08-20T12:25:56Z</time>
      </trkpt>
      <trkpt lat="60.12038746" lon="30.52220243">
        <ele>50.61</ele>
        <time>2026-08-20T12:26:19Z</time>
      </trkpt>
      <trkpt lat="60.12036659" lon="30.52222389">
        <ele>50.61</ele>
        <time>2026-08-20T12:26:43Z</time>
      </trkpt>
      <trkpt lat="60.120365" lon="30.52221618">
        <ele>50.61</ele>
        <time>2026-08-20T12:27:20Z</time>
      </trkpt>
      <trkpt lat="60.12037321" lon="30.52221224">
        <ele>50.61</ele>
        <time>2026-08-20T12:27:53Z</time>
      </trkpt>
      <trkpt lat="60.12037388" lon="30.52221852">
        <ele>50.61</ele>
        <time>2026-08-20T12:28:23Z</time>
      </trkpt>
      <trkpt lat="60.12037924" lon="30.52221844">
        <ele>50.61</ele>
        <time>2026-08-20T12:28:56Z</time>
      </trkpt>
      <trkpt lat="60.12038905" lon="30.52221693">
        <ele>50.61</ele>
        <time>2026-08-20T12:29:21Z</time>
      </trkpt>
      <trkpt lat="60.12039391" lon="30.52221375">
        <ele>51.09</ele>
        <time>2026-08-20T12:29:42Z</time>
      </trkpt>
      <trkpt lat="60.12039626" lon="30.52224266">
        <ele>51.57</ele>
        <time>2026-08-20T12:30:07Z</time>
      </trkpt>
      <trkpt lat="60.12041101" lon="30.52232514">
        <ele>51.57</ele>
        <time>2026-08-20T12:30:20Z</time>
      </trkpt>
      <trkpt lat="60.12039031" lon="30.52236303">
        <ele>51.57</ele>
        <time>2026-08-20T12:30:35Z</time>
      </trkpt>
      <trkpt lat="60.12037321" lon="30.52241743">
        <ele>51.57</ele>
        <time>2026-08-20T12:30:55Z</time>
      </trkpt>
      <trkpt lat="60.12036852" lon="30.52245632">
        <ele>51.57</ele>
        <time>2026-08-20T12:31:24Z</time>
      </trkpt>
      <trkpt lat="60.1203769" lon="30.52250317">
        <ele>51.09</ele>
        <time>2026-08-20T12:31:44Z</time>
      </trkpt>
      <trkpt lat="60.12038847" lon="30.52250812">
        <ele>51.09</ele>
        <time>2026-08-20T12:32:27Z</time>
      </trkpt>
      <trkpt lat="60.12038838" lon="30.52251139">
        <ele>51.09</ele>
        <time>2026-08-20T12:32:47Z</time>
      </trkpt>
      <trkpt lat="60.12042367" lon="30.52254307">
        <ele>51.57</ele>
        <time>2026-08-20T12:33:10Z</time>
      </trkpt>
      <trkpt lat="60.12042317" lon="30.52256495">
        <ele>51.09</ele>
        <time>2026-08-20T12:33:30Z</time>
      </trkpt>
      <trkpt lat="60.1204178" lon="30.52259135">
        <ele>51.57</ele>
        <time>2026-08-20T12:34:09Z</time>
      </trkpt>
      <trkpt lat="60.12039249" lon="30.52262312">
        <ele>51.09</ele>
        <time>2026-08-20T12:34:46Z</time>
      </trkpt>
      <trkpt lat="60.12031487" lon="30.52270249">
        <ele>51.09</ele>
        <time>2026-08-20T12:35:36Z</time>
      </trkpt>
      <trkpt lat="60.12033977" lon="30.5227201">
        <ele>51.09</ele>
        <time>2026-08-20T12:36:27Z</time>
      </trkpt>
      <trkpt lat="60.120323" lon="30.52277986">
        <ele>51.09</ele>
        <time>2026-08-20T12:36:54Z</time>
      </trkpt>
      <trkpt lat="60.12031739" lon="30.52284616">
        <ele>51.57</ele>
        <time>2026-08-20T12:37:18Z</time>
      </trkpt>
      <trkpt lat="60.12030833" lon="30.52295663">
        <ele>51.09</ele>
        <time>2026-08-20T12:37:39Z</time>
      </trkpt>
      <trkpt lat="60.12032258" lon="30.52302117">
        <ele>51.57</ele>
        <time>2026-08-20T12:38:01Z</time>
      </trkpt>
      <trkpt lat="60.12032418" lon="30.52309326">
        <ele>51.57</ele>
        <time>2026-08-20T12:38:24Z</time>
      </trkpt>
      <trkpt lat="60.12032468" lon="30.52310055">
        <ele>52.05</ele>
        <time>2026-08-20T12:38:53Z</time>
      </trkpt>
      <trkpt lat="60.12033859" lon="30.52319359">
        <ele>52.53</ele>
        <time>2026-08-20T12:39:11Z</time>
      </trkpt>
      <trkpt lat="60.12035687" lon="30.52326668">
        <ele>53.97</ele>
        <time>2026-08-20T12:39:29Z</time>
      </trkpt>
      <trkpt lat="60.12037011" lon="30.52330012">
        <ele>53.97</ele>
        <time>2026-08-20T12:39:50Z</time>
      </trkpt>
      <trkpt lat="60.1203593" lon="30.52335888">
        <ele>53.97</ele>
        <time>2026-08-20T12:40:08Z</time>
      </trkpt>
      <trkpt lat="60.12036055" lon="30.52342837">
        <ele>54.93</ele>
        <time>2026-08-20T12:40:32Z</time>
      </trkpt>
      <trkpt lat="60.12036684" lon="30.5234619">
        <ele>53.97</ele>
        <time>2026-08-20T12:40:56Z</time>
      </trkpt>
      <trkpt lat="60.1203722" lon="30.52347665">
        <ele>54.45</ele>
        <time>2026-08-20T12:41:22Z</time>
      </trkpt>
      <trkpt lat="60.12037179" lon="30.523508">
        <ele>54.93</ele>
        <time>2026-08-20T12:41:46Z</time>
      </trkpt>
      <trkpt lat="60.12037564" lon="30.52355686">
        <ele>54.93</ele>
        <time>2026-08-20T12:42:06Z</time>
      </trkpt>
      <trkpt lat="60.12037698" lon="30.52356809">
        <ele>54.45</ele>
        <time>2026-08-20T12:42:26Z</time>
      </trkpt>
      <trkpt lat="60.12038268" lon="30.52358008">
        <ele>54.45</ele>
        <time>2026-08-20T12:42:58Z</time>
      </trkpt>
      <trkpt lat="60.12039576" lon="30.52361998">
        <ele>54.45</ele>
        <time>2026-08-20T12:43:29Z</time>
      </trkpt>
      <trkpt lat="60.12041328" lon="30.52366289">
        <ele>54.93</ele>
        <time>2026-08-20T12:43:54Z</time>
      </trkpt>
      <trkpt lat="60.12041738" lon="30.52370899">
        <ele>53.97</ele>
        <time>2026-08-20T12:44:13Z</time>
      </trkpt>
      <trkpt lat="60.12042602" lon="30.52389625">
        <ele>56.37</ele>
        <time>2026-08-20T12:44:34Z</time>
      </trkpt>
      <trkpt lat="60.12044286" lon="30.52401795">
        <ele>57.34</ele>
        <time>2026-08-20T12:44:52Z</time>
      </trkpt>
      <trkpt lat="60.12028025" lon="30.52400219">
        <ele>60.22</ele>
        <time>2026-08-20T12:45:11Z</time>
      </trkpt>
      <trkpt lat="60.12020381" lon="30.52392935">
        <ele>60.7</ele>
        <time>2026-08-20T12:45:18Z</time>
      </trkpt>
      <trkpt lat="60.12014246" lon="30.52390857">
        <ele>60.22</ele>
        <time>2026-08-20T12:45:36Z</time>
      </trkpt>
      <trkpt lat="60.1201277" lon="30.52389842">
        <ele>60.22</ele>
        <time>2026-08-20T12:45:53Z</time>
      </trkpt>
      <trkpt lat="60.12008177" lon="30.52390002">
        <ele>60.22</ele>
        <time>2026-08-20T12:45:57Z</time>
      </trkpt>
      <trkpt lat="60.11980969" lon="30.52394226">
        <ele>60.22</ele>
        <time>2026-08-20T12:46:17Z</time>
      </trkpt>
      <trkpt lat="60.11975496" lon="30.52392835">
        <ele>60.22</ele>
        <time>2026-08-20T12:46:31Z</time>
      </trkpt>
      <trkpt lat="60.11980483" lon="30.52393028">
        <ele>60.22</ele>
        <time>2026-08-20T12:46:39Z</time>
      </trkpt>
      <trkpt lat="60.12001405" lon="30.52389155">
        <ele>60.22</ele>
        <time>2026-08-20T12:46:58Z</time>
      </trkpt>
      <trkpt lat="60.12010968" lon="30.52392399">
        <ele>60.22</ele>
        <time>2026-08-20T12:47:07Z</time>
      </trkpt>
      <trkpt lat="60.12013894" lon="30.52392868">
        <ele>60.7</ele>
        <time>2026-08-20T12:47:22Z</time>
      </trkpt>
      <trkpt lat="60.12014271" lon="30.52393187">
        <ele>60.7</ele>
        <time>2026-08-20T12:47:56Z</time>
      </trkpt>
      <trkpt lat="60.12013877" lon="30.52392776">
        <ele>60.22</ele>
        <time>2026-08-20T12:48:22Z</time>
      </trkpt>
      <trkpt lat="60.12019124" lon="30.52368477">
        <ele>60.22</ele>
        <time>2026-08-20T12:48:42Z</time>
      </trkpt>
      <trkpt lat="60.12013315" lon="30.52354538">
        <ele>59.26</ele>
        <time>2026-08-20T12:49:08Z</time>
      </trkpt>
      <trkpt lat="60.12012921" lon="30.52347832">
        <ele>59.26</ele>
        <time>2026-08-20T12:49:28Z</time>
      </trkpt>
      <trkpt lat="60.12013977" lon="30.52340959">
        <ele>58.78</ele>
        <time>2026-08-20T12:49:32Z</time>
      </trkpt>
      <trkpt lat="60.12013206" lon="30.52330574">
        <ele>58.3</ele>
        <time>2026-08-20T12:49:37Z</time>
      </trkpt>
      <trkpt lat="60.12013407" lon="30.52311589">
        <ele>56.37</ele>
        <time>2026-08-20T12:49:53Z</time>
      </trkpt>
      <trkpt lat="60.12006224" lon="30.52294356">
        <ele>53.01</ele>
        <time>2026-08-20T12:50:11Z</time>
      </trkpt>
      <trkpt lat="60.12006467" lon="30.52282345">
        <ele>52.05</ele>
        <time>2026-08-20T12:50:28Z</time>
      </trkpt>
      <trkpt lat="60.12005998" lon="30.52265807">
        <ele>51.09</ele>
        <time>2026-08-20T12:50:44Z</time>
      </trkpt>
      <trkpt lat="60.12009745" lon="30.52267659">
        <ele>51.09</ele>
        <time>2026-08-20T12:51:00Z</time>
      </trkpt>
      <trkpt lat="60.12010407" lon="30.52264617">
        <ele>50.61</ele>
        <time>2026-08-20T12:51:33Z</time>
      </trkpt>
      <trkpt lat="60.1201039" lon="30.52258515">
        <ele>50.61</ele>
        <time>2026-08-20T12:51:50Z</time>
      </trkpt>
      <trkpt lat="60.1201065" lon="30.52258146">
        <ele>51.09</ele>
        <time>2026-08-20T12:52:14Z</time>
      </trkpt>
      <trkpt lat="60.12011496" lon="30.52252153">
        <ele>50.61</ele>
        <time>2026-08-20T12:52:42Z</time>
      </trkpt>
      <trkpt lat="60.12011454" lon="30.52248498">
        <ele>51.09</ele>
        <time>2026-08-20T12:52:58Z</time>
      </trkpt>
      <trkpt lat="60.12012737" lon="30.52243578">
        <ele>50.61</ele>
        <time>2026-08-20T12:53:12Z</time>
      </trkpt>
      <trkpt lat="60.12012779" lon="30.52241432">
        <ele>50.61</ele>
        <time>2026-08-20T12:53:31Z</time>
      </trkpt>
      <trkpt lat="60.12014036" lon="30.52226454">
        <ele>50.61</ele>
        <time>2026-08-20T12:53:53Z</time>
      </trkpt>
      <trkpt lat="60.120164" lon="30.52221584">
        <ele>51.09</ele>
        <time>2026-08-20T12:54:10Z</time>
      </trkpt>
      <trkpt lat="60.12018277" lon="30.52219137">
        <ele>51.09</ele>
        <time>2026-08-20T12:54:33Z</time>
      </trkpt>
      <trkpt lat="60.12019878" lon="30.52214535">
        <ele>51.09</ele>
        <time>2026-08-20T12:54:51Z</time>
      </trkpt>
      <trkpt lat="60.12017808" lon="30.52212138">
        <ele>51.09</ele>
        <time>2026-08-20T12:55:08Z</time>
      </trkpt>
      <trkpt lat="60.12017397" lon="30.52210663">
        <ele>51.09</ele>
        <time>2026-08-20T12:55:25Z</time>
      </trkpt>
      <trkpt lat="60.12018587" lon="30.52206346">
        <ele>50.61</ele>
        <time>2026-08-20T12:55:49Z</time>
      </trkpt>
      <trkpt lat="60.12021068" lon="30.52192884">
        <ele>51.09</ele>
        <time>2026-08-20T12:56:08Z</time>
      </trkpt>
      <trkpt lat="60.12019484" lon="30.5216991">
        <ele>51.09</ele>
        <time>2026-08-20T12:56:29Z</time>
      </trkpt>
      <trkpt lat="60.12015184" lon="30.52148863">
        <ele>51.09</ele>
        <time>2026-08-20T12:56:48Z</time>
      </trkpt>
      <trkpt lat="60.12010138" lon="30.52138545">
        <ele>51.09</ele>
        <time>2026-08-20T12:57:12Z</time>
      </trkpt>
      <trkpt lat="60.12009988" lon="30.52141679">
        <ele>51.09</ele>
        <time>2026-08-20T12:57:34Z</time>
      </trkpt>
      <trkpt lat="60.1200329" lon="30.52144747">
        <ele>51.09</ele>
        <time>2026-08-20T12:57:57Z</time>
      </trkpt>
      <trkpt lat="60.12002427" lon="30.52146466">
        <ele>50.61</ele>
        <time>2026-08-20T12:58:21Z</time>
      </trkpt>
      <trkpt lat="60.12002167" lon="30.52146658">
        <ele>50.61</ele>
        <time>2026-08-20T12:58:41Z</time>
      </trkpt>
      <trkpt lat="60.1200288" lon="30.52150673">
        <ele>50.61</ele>
        <time>2026-08-20T12:59:03Z</time>
      </trkpt>
      <trkpt lat="60.11996468" lon="30.52171452">
        <ele>50.61</ele>
        <time>2026-08-20T12:59:25Z</time>
      </trkpt>
      <trkpt lat="60.11996929" lon="30.5217276">
        <ele>50.61</ele>
        <time>2026-08-20T12:59:52Z</time>
      </trkpt>
      <trkpt lat="60.11998697" lon="30.52180613">
        <ele>50.61</ele>
        <time>2026-08-20T13:00:24Z</time>
      </trkpt>
      <trkpt lat="60.1200179" lon="30.52194469">
        <ele>50.61</ele>
        <time>2026-08-20T13:00:42Z</time>
      </trkpt>
      <trkpt lat="60.12002561" lon="30.52200738">
        <ele>50.13</ele>
        <time>2026-08-20T13:01:02Z</time>
      </trkpt>
      <trkpt lat="60.12001631" lon="30.52219304">
        <ele>50.61</ele>
        <time>2026-08-20T13:01:28Z</time>
      </trkpt>
      <trkpt lat="60.11997834" lon="30.52230813">
        <ele>50.61</ele>
        <time>2026-08-20T13:01:45Z</time>
      </trkpt>
      <trkpt lat="60.11994498" lon="30.52243754">
        <ele>50.13</ele>
        <time>2026-08-20T13:02:02Z</time>
      </trkpt>
      <trkpt lat="60.11989209" lon="30.52261423">
        <ele>50.61</ele>
        <time>2026-08-20T13:02:24Z</time>
      </trkpt>
      <trkpt lat="60.1198563" lon="30.52267877">
        <ele>51.57</ele>
        <time>2026-08-20T13:02:43Z</time>
      </trkpt>
      <trkpt lat="60.11984565" lon="30.52264709">
        <ele>51.57</ele>
        <time>2026-08-20T13:03:02Z</time>
      </trkpt>
      <trkpt lat="60.1197097" lon="30.52266939">
        <ele>50.61</ele>
        <time>2026-08-20T13:03:22Z</time>
      </trkpt>
      <trkpt lat="60.11964449" lon="30.5227491">
        <ele>51.57</ele>
        <time>2026-08-20T13:03:47Z</time>
      </trkpt>
      <trkpt lat="60.11963711" lon="30.52277584">
        <ele>52.05</ele>
        <time>2026-08-20T13:04:02Z</time>
      </trkpt>
      <trkpt lat="60.11961264" lon="30.522746">
        <ele>51.57</ele>
        <time>2026-08-20T13:04:24Z</time>
      </trkpt>
      <trkpt lat="60.11961155" lon="30.52271473">
        <ele>51.57</ele>
        <time>2026-08-20T13:04:46Z</time>
      </trkpt>
      <trkpt lat="60.11963954" lon="30.52270182">
        <ele>51.09</ele>
        <time>2026-08-20T13:05:07Z</time>
      </trkpt>
      <trkpt lat="60.11963778" lon="30.52269445">
        <ele>51.09</ele>
        <time>2026-08-20T13:05:22Z</time>
      </trkpt>
      <trkpt lat="60.11964776" lon="30.52263737">
        <ele>50.61</ele>
        <time>2026-08-20T13:05:41Z</time>
      </trkpt>
      <trkpt lat="60.11965279" lon="30.52252932">
        <ele>50.13</ele>
        <time>2026-08-20T13:05:58Z</time>
      </trkpt>
      <trkpt lat="60.1196817" lon="30.52240904">
        <ele>50.13</ele>
        <time>2026-08-20T13:06:17Z</time>
      </trkpt>
      <trkpt lat="60.11966703" lon="30.52233553">
        <ele>49.65</ele>
        <time>2026-08-20T13:06:30Z</time>
      </trkpt>
      <trkpt lat="60.11969059" lon="30.5222741">
        <ele>49.65</ele>
        <time>2026-08-20T13:06:43Z</time>
      </trkpt>
      <trkpt lat="60.11972219" lon="30.52221886">
        <ele>49.65</ele>
        <time>2026-08-20T13:06:55Z</time>
      </trkpt>
      <trkpt lat="60.11972646" lon="30.52219715">
        <ele>49.16</ele>
        <time>2026-08-20T13:07:08Z</time>
      </trkpt>
      <trkpt lat="60.11971498" lon="30.52216756">
        <ele>49.65</ele>
        <time>2026-08-20T13:07:20Z</time>
      </trkpt>
      <trkpt lat="60.11974524" lon="30.52214049">
        <ele>49.16</ele>
        <time>2026-08-20T13:07:37Z</time>
      </trkpt>
      <trkpt lat="60.11974247" lon="30.52210755">
        <ele>49.65</ele>
        <time>2026-08-20T13:08:00Z</time>
      </trkpt>
      <trkpt lat="60.11973191" lon="30.52208793">
        <ele>50.13</ele>
        <time>2026-08-20T13:08:34Z</time>
      </trkpt>
      <trkpt lat="60.11971883" lon="30.5220441">
        <ele>49.65</ele>
        <time>2026-08-20T13:09:15Z</time>
      </trkpt>
      <trkpt lat="60.11970534" lon="30.52199355">
        <ele>49.65</ele>
        <time>2026-08-20T13:09:26Z</time>
      </trkpt>
      <trkpt lat="60.11969101" lon="30.52190253">
        <ele>49.65</ele>
        <time>2026-08-20T13:09:43Z</time>
      </trkpt>
      <trkpt lat="60.1196931" lon="30.52190186">
        <ele>49.16</ele>
        <time>2026-08-20T13:10:14Z</time>
      </trkpt>
      <trkpt lat="60.11968925" lon="30.52187738">
        <ele>49.65</ele>
        <time>2026-08-20T13:10:38Z</time>
      </trkpt>
      <trkpt lat="60.11966737" lon="30.52175718">
        <ele>49.16</ele>
        <time>2026-08-20T13:11:06Z</time>
      </trkpt>
      <trkpt lat="60.11963326" lon="30.52172475">
        <ele>49.16</ele>
        <time>2026-08-20T13:12:02Z</time>
      </trkpt>
      <trkpt lat="60.11963728" lon="30.52172718">
        <ele>48.68</ele>
        <time>2026-08-20T13:12:16Z</time>
      </trkpt>
      <trkpt lat="60.11963803" lon="30.52172617">
        <ele>49.16</ele>
        <time>2026-08-20T13:12:34Z</time>
      </trkpt>
      <trkpt lat="60.11964256" lon="30.52172047">
        <ele>49.65</ele>
        <time>2026-08-20T13:13:09Z</time>
      </trkpt>
      <trkpt lat="60.11964424" lon="30.52171796">
        <ele>49.65</ele>
        <time>2026-08-20T13:13:44Z</time>
      </trkpt>
      <trkpt lat="60.11964491" lon="30.52171963">
        <ele>49.65</ele>
        <time>2026-08-20T13:14:27Z</time>
      </trkpt>
      <trkpt lat="60.11965295" lon="30.52171729">
        <ele>49.65</ele>
        <time>2026-08-20T13:14:59Z</time>
      </trkpt>
      <trkpt lat="60.1196838" lon="30.52173304">
        <ele>50.13</ele>
        <time>2026-08-20T13:15:16Z</time>
      </trkpt>
      <trkpt lat="60.1197035" lon="30.52174612">
        <ele>50.61</ele>
        <time>2026-08-20T13:15:42Z</time>
      </trkpt>
      <trkpt lat="60.11977407" lon="30.52179364">
        <ele>50.61</ele>
        <time>2026-08-20T13:16:05Z</time>
      </trkpt>
      <trkpt lat="60.11982587" lon="30.52177797">
        <ele>50.61</ele>
        <time>2026-08-20T13:16:36Z</time>
      </trkpt>
      <trkpt lat="60.11989561" lon="30.52179297">
        <ele>50.61</ele>
        <time>2026-08-20T13:16:49Z</time>
      </trkpt>
      <trkpt lat="60.11988706" lon="30.52177755">
        <ele>50.61</ele>
        <time>2026-08-20T13:17:08Z</time>
      </trkpt>
      <trkpt lat="60.11984146" lon="30.52172877">
        <ele>50.61</ele>
        <time>2026-08-20T13:17:30Z</time>
      </trkpt>
      <trkpt lat="60.11978187" lon="30.52170304">
        <ele>50.13</ele>
        <time>2026-08-20T13:17:48Z</time>
      </trkpt>
      <trkpt lat="60.11975337" lon="30.52168686">
        <ele>50.13</ele>
        <time>2026-08-20T13:18:09Z</time>
      </trkpt>
      <trkpt lat="60.11976426" lon="30.52166129">
        <ele>50.13</ele>
        <time>2026-08-20T13:18:31Z</time>
      </trkpt>
      <trkpt lat="60.11976318" lon="30.52160237">
        <ele>50.61</ele>
        <time>2026-08-20T13:18:46Z</time>
      </trkpt>
      <trkpt lat="60.11976167" lon="30.5215903">
        <ele>50.61</ele>
        <time>2026-08-20T13:19:06Z</time>
      </trkpt>
      <trkpt lat="60.11975446" lon="30.52158133">
        <ele>50.61</ele>
        <time>2026-08-20T13:19:23Z</time>
      </trkpt>
      <trkpt lat="60.11976309" lon="30.52156088">
        <ele>50.61</ele>
        <time>2026-08-20T13:19:56Z</time>
      </trkpt>
      <trkpt lat="60.1197501" lon="30.52154755">
        <ele>50.13</ele>
        <time>2026-08-20T13:20:15Z</time>
      </trkpt>
      <trkpt lat="60.11974314" lon="30.52153238">
        <ele>50.61</ele>
        <time>2026-08-20T13:20:38Z</time>
      </trkpt>
      <trkpt lat="60.119733" lon="30.52145795">
        <ele>50.13</ele>
        <time>2026-08-20T13:20:58Z</time>
      </trkpt>
      <trkpt lat="60.11972143" lon="30.52127606">
        <ele>50.13</ele>
        <time>2026-08-20T13:21:21Z</time>
      </trkpt>
      <trkpt lat="60.11970911" lon="30.5212795">
        <ele>50.13</ele>
        <time>2026-08-20T13:21:38Z</time>
      </trkpt>
      <trkpt lat="60.11969436" lon="30.52135359">
        <ele>49.65</ele>
        <time>2026-08-20T13:21:56Z</time>
      </trkpt>
      <trkpt lat="60.11965823" lon="30.52142082">
        <ele>49.65</ele>
        <time>2026-08-20T13:22:13Z</time>
      </trkpt>
      <trkpt lat="60.11963845" lon="30.52142233">
        <ele>49.16</ele>
        <time>2026-08-20T13:22:27Z</time>
      </trkpt>
      <trkpt lat="60.1196242" lon="30.52143825">
        <ele>49.65</ele>
        <time>2026-08-20T13:22:50Z</time>
      </trkpt>
      <trkpt lat="60.1196315" lon="30.52143917">
        <ele>49.65</ele>
        <time>2026-08-20T13:23:17Z</time>
      </trkpt>
      <trkpt lat="60.1196118" lon="30.52148192">
        <ele>49.65</ele>
        <time>2026-08-20T13:23:37Z</time>
      </trkpt>
      <trkpt lat="60.11958255" lon="30.5215266">
        <ele>49.16</ele>
        <time>2026-08-20T13:23:55Z</time>
      </trkpt>
      <trkpt lat="60.11952429" lon="30.52158854">
        <ele>49.16</ele>
        <time>2026-08-20T13:24:12Z</time>
      </trkpt>
      <trkpt lat="60.11948607" lon="30.52161343">
        <ele>49.16</ele>
        <time>2026-08-20T13:24:33Z</time>
      </trkpt>
      <trkpt lat="60.11948003" lon="30.52161737">
        <ele>49.16</ele>
        <time>2026-08-20T13:24:56Z</time>
      </trkpt>
      <trkpt lat="60.1194735" lon="30.52161142">
        <ele>48.68</ele>
        <time>2026-08-20T13:25:16Z</time>
      </trkpt>
      <trkpt lat="60.11946084" lon="30.52160656">
        <ele>49.16</ele>
        <time>2026-08-20T13:25:40Z</time>
      </trkpt>
      <trkpt lat="60.1194543" lon="30.52160279">
        <ele>48.68</ele>
        <time>2026-08-20T13:25:59Z</time>
      </trkpt>
      <trkpt lat="60.11944659" lon="30.52163288">
        <ele>48.68</ele>
        <time>2026-08-20T13:26:19Z</time>
      </trkpt>
      <trkpt lat="60.11944106" lon="30.52171309">
        <ele>48.2</ele>
        <time>2026-08-20T13:26:38Z</time>
      </trkpt>
      <trkpt lat="60.11944843" lon="30.52176313">
        <ele>48.68</ele>
        <time>2026-08-20T13:27:04Z</time>
      </trkpt>
      <trkpt lat="60.11947324" lon="30.52186053">
        <ele>49.16</ele>
        <time>2026-08-20T13:27:25Z</time>
      </trkpt>
      <trkpt lat="60.11945707" lon="30.52204619">
        <ele>49.16</ele>
        <time>2026-08-20T13:27:43Z</time>
      </trkpt>
      <trkpt lat="60.1194538" lon="30.52232539">
        <ele>50.61</ele>
        <time>2026-08-20T13:28:04Z</time>
      </trkpt>
      <trkpt lat="60.11944785" lon="30.52241189">
        <ele>50.61</ele>
        <time>2026-08-20T13:28:22Z</time>
      </trkpt>
      <trkpt lat="60.11943351" lon="30.52241055">
        <ele>50.61</ele>
        <time>2026-08-20T13:28:39Z</time>
      </trkpt>
      <trkpt lat="60.11934324" lon="30.52230259">
        <ele>50.61</ele>
        <time>2026-08-20T13:29:02Z</time>
      </trkpt>
      <trkpt lat="60.1192585" lon="30.522214">
        <ele>51.09</ele>
        <time>2026-08-20T13:29:24Z</time>
      </trkpt>
      <trkpt lat="60.11923889" lon="30.52199724">
        <ele>50.13</ele>
        <time>2026-08-20T13:29:46Z</time>
      </trkpt>
      <trkpt lat="60.11927409" lon="30.52177973">
        <ele>49.16</ele>
        <time>2026-08-20T13:30:08Z</time>
      </trkpt>
      <trkpt lat="60.11923729" lon="30.52167873">
        <ele>49.16</ele>
        <time>2026-08-20T13:30:28Z</time>
      </trkpt>
      <trkpt lat="60.11924601" lon="30.52166968">
        <ele>48.2</ele>
        <time>2026-08-20T13:30:47Z</time>
      </trkpt>
      <trkpt lat="60.11924777" lon="30.52166448">
        <ele>48.68</ele>
        <time>2026-08-20T13:31:27Z</time>
      </trkpt>
      <trkpt lat="60.11924651" lon="30.52166557">
        <ele>48.2</ele>
        <time>2026-08-20T13:32:00Z</time>
      </trkpt>
      <trkpt lat="60.11924425" lon="30.52168183">
        <ele>48.68</ele>
        <time>2026-08-20T13:32:39Z</time>
      </trkpt>
      <trkpt lat="60.1192362" lon="30.52168233">
        <ele>48.68</ele>
        <time>2026-08-20T13:33:09Z</time>
      </trkpt>
      <trkpt lat="60.11924241" lon="30.52169968">
        <ele>48.68</ele>
        <time>2026-08-20T13:33:33Z</time>
      </trkpt>
      <trkpt lat="60.1192321" lon="30.52169767">
        <ele>48.68</ele>
        <time>2026-08-20T13:33:57Z</time>
      </trkpt>
      <trkpt lat="60.11923134" lon="30.52169918">
        <ele>48.68</ele>
        <time>2026-08-20T13:34:38Z</time>
      </trkpt>
      <trkpt lat="60.1192357" lon="30.52171879">
        <ele>48.68</ele>
        <time>2026-08-20T13:35:07Z</time>
      </trkpt>
      <trkpt lat="60.1192383" lon="30.52172969">
        <ele>48.2</ele>
        <time>2026-08-20T13:35:42Z</time>
      </trkpt>
      <trkpt lat="60.11924291" lon="30.52173967">
        <ele>48.68</ele>
        <time>2026-08-20T13:36:13Z</time>
      </trkpt>
      <trkpt lat="60.11923729" lon="30.52173095">
        <ele>49.16</ele>
        <time>2026-08-20T13:36:36Z</time>
      </trkpt>
      <trkpt lat="60.11923587" lon="30.52173832">
        <ele>49.16</ele>
        <time>2026-08-20T13:37:00Z</time>
      </trkpt>
      <trkpt lat="60.11923914" lon="30.52174939">
        <ele>49.65</ele>
        <time>2026-08-20T13:37:22Z</time>
      </trkpt>
      <trkpt lat="60.11923889" lon="30.52175509">
        <ele>49.65</ele>
        <time>2026-08-20T13:37:42Z</time>
      </trkpt>
      <trkpt lat="60.11924325" lon="30.52175685">
        <ele>49.65</ele>
        <time>2026-08-20T13:38:05Z</time>
      </trkpt>
      <trkpt lat="60.11924316" lon="30.52175324">
        <ele>49.65</ele>
        <time>2026-08-20T13:38:29Z</time>
      </trkpt>
      <trkpt lat="60.1192554" lon="30.52167705">
        <ele>49.65</ele>
        <time>2026-08-20T13:38:48Z</time>
      </trkpt>
      <trkpt lat="60.11929949" lon="30.52163565">
        <ele>50.13</ele>
        <time>2026-08-20T13:39:04Z</time>
      </trkpt>
      <trkpt lat="60.11936059" lon="30.52152894">
        <ele>50.13</ele>
        <time>2026-08-20T13:39:20Z</time>
      </trkpt>
      <trkpt lat="60.1194569" lon="30.52127724">
        <ele>50.61</ele>
        <time>2026-08-20T13:39:40Z</time>
      </trkpt>
      <trkpt lat="60.11945187" lon="30.52118939">
        <ele>50.13</ele>
        <time>2026-08-20T13:40:01Z</time>
      </trkpt>
      <trkpt lat="60.1194626" lon="30.52119526">
        <ele>50.13</ele>
        <time>2026-08-20T13:40:27Z</time>
      </trkpt>
      <trkpt lat="60.11947962" lon="30.52125419">
        <ele>50.61</ele>
        <time>2026-08-20T13:40:43Z</time>
      </trkpt>
      <trkpt lat="60.11948615" lon="30.52125905">
        <ele>50.61</ele>
        <time>2026-08-20T13:41:20Z</time>
      </trkpt>
      <trkpt lat="60.11949185" lon="30.52127145">
        <ele>51.09</ele>
        <time>2026-08-20T13:41:53Z</time>
      </trkpt>
      <trkpt lat="60.11949009" lon="30.52127405">
        <ele>51.09</ele>
        <time>2026-08-20T13:42:24Z</time>
      </trkpt>
      <trkpt lat="60.119489" lon="30.52127916">
        <ele>51.09</ele>
        <time>2026-08-20T13:42:54Z</time>
      </trkpt>
      <trkpt lat="60.1194859" lon="30.52127237">
        <ele>51.09</ele>
        <time>2026-08-20T13:43:55Z</time>
      </trkpt>
      <trkpt lat="60.11948741" lon="30.5212681">
        <ele>51.09</ele>
        <time>2026-08-20T13:44:50Z</time>
      </trkpt>
      <trkpt lat="60.1194476" lon="30.52114983">
        <ele>50.61</ele>
        <time>2026-08-20T13:45:03Z</time>
      </trkpt>
      <trkpt lat="60.11934483" lon="30.52105126">
        <ele>50.61</ele>
        <time>2026-08-20T13:45:27Z</time>
      </trkpt>
      <trkpt lat="60.11925741" lon="30.52101145">
        <ele>50.13</ele>
        <time>2026-08-20T13:45:43Z</time>
      </trkpt>
      <trkpt lat="60.1191456" lon="30.52091975">
        <ele>49.65</ele>
        <time>2026-08-20T13:46:00Z</time>
      </trkpt>
      <trkpt lat="60.1191181" lon="30.52091765">
        <ele>49.65</ele>
        <time>2026-08-20T13:46:18Z</time>
      </trkpt>
      <trkpt lat="60.11896958" lon="30.52080735">
        <ele>49.16</ele>
        <time>2026-08-20T13:46:40Z</time>
      </trkpt>
      <trkpt lat="60.11890219" lon="30.52083333">
        <ele>49.16</ele>
        <time>2026-08-20T13:47:02Z</time>
      </trkpt>
      <trkpt lat="60.11884443" lon="30.52082403">
        <ele>49.16</ele>
        <time>2026-08-20T13:47:23Z</time>
      </trkpt>
      <trkpt lat="60.11882046" lon="30.52085613">
        <ele>49.16</ele>
        <time>2026-08-20T13:47:42Z</time>
      </trkpt>
      <trkpt lat="60.1187659" lon="30.52087055">
        <ele>49.16</ele>
        <time>2026-08-20T13:48:02Z</time>
      </trkpt>
      <trkpt lat="60.11874117" lon="30.52088463">
        <ele>49.16</ele>
        <time>2026-08-20T13:48:22Z</time>
      </trkpt>
      <trkpt lat="60.11870421" lon="30.52086736">
        <ele>49.16</ele>
        <time>2026-08-20T13:48:39Z</time>
      </trkpt>
      <trkpt lat="60.11870538" lon="30.52083123">
        <ele>49.16</ele>
        <time>2026-08-20T13:49:05Z</time>
      </trkpt>
      <trkpt lat="60.11868954" lon="30.52080005">
        <ele>49.16</ele>
        <time>2026-08-20T13:49:21Z</time>
      </trkpt>
      <trkpt lat="60.11868585" lon="30.52075177">
        <ele>49.16</ele>
        <time>2026-08-20T13:49:42Z</time>
      </trkpt>
      <trkpt lat="60.11863078" lon="30.52059453">
        <ele>48.68</ele>
        <time>2026-08-20T13:50:04Z</time>
      </trkpt>
      <trkpt lat="60.11859365" lon="30.52049319">
        <ele>48.68</ele>
        <time>2026-08-20T13:50:26Z</time>
      </trkpt>
      <trkpt lat="60.11855107" lon="30.52033419">
        <ele>48.68</ele>
        <time>2026-08-20T13:50:51Z</time>
      </trkpt>
      <trkpt lat="60.11850907" lon="30.52025917">
        <ele>48.68</ele>
        <time>2026-08-20T13:51:11Z</time>
      </trkpt>
      <trkpt lat="60.11849876" lon="30.52009095">
        <ele>48.68</ele>
        <time>2026-08-20T13:51:28Z</time>
      </trkpt>
      <trkpt lat="60.11849516" lon="30.52003923">
        <ele>48.68</ele>
        <time>2026-08-20T13:51:50Z</time>
      </trkpt>
      <trkpt lat="60.11849399" lon="30.52003747">
        <ele>48.68</ele>
        <time>2026-08-20T13:52:17Z</time>
      </trkpt>
      <trkpt lat="60.11850145" lon="30.52004518">
        <ele>48.68</ele>
        <time>2026-08-20T13:52:47Z</time>
      </trkpt>
      <trkpt lat="60.1185048" lon="30.52004283">
        <ele>48.68</ele>
        <time>2026-08-20T13:53:20Z</time>
      </trkpt>
      <trkpt lat="60.11851184" lon="30.52003688">
        <ele>48.2</ele>
        <time>2026-08-20T13:53:46Z</time>
      </trkpt>
      <trkpt lat="60.11851595" lon="30.52003856">
        <ele>48.68</ele>
        <time>2026-08-20T13:54:19Z</time>
      </trkpt>
      <trkpt lat="60.11851829" lon="30.52003713">
        <ele>48.68</ele>
        <time>2026-08-20T13:54:44Z</time>
      </trkpt>
      <trkpt lat="60.11851829" lon="30.52004778">
        <ele>48.2</ele>
        <time>2026-08-20T13:55:10Z</time>
      </trkpt>
      <trkpt lat="60.11852793" lon="30.52005775">
        <ele>48.68</ele>
        <time>2026-08-20T13:55:34Z</time>
      </trkpt>
      <trkpt lat="60.11852735" lon="30.52005784">
        <ele>48.68</ele>
        <time>2026-08-20T13:56:06Z</time>
      </trkpt>
      <trkpt lat="60.11852886" lon="30.52005884">
        <ele>49.16</ele>
        <time>2026-08-20T13:56:51Z</time>
      </trkpt>
      <trkpt lat="60.11853028" lon="30.5200627">
        <ele>48.68</ele>
        <time>2026-08-20T13:57:22Z</time>
      </trkpt>
      <trkpt lat="60.11853397" lon="30.52006186">
        <ele>49.16</ele>
        <time>2026-08-20T13:57:54Z</time>
      </trkpt>
      <trkpt lat="60.11853866" lon="30.52005876">
        <ele>49.16</ele>
        <time>2026-08-20T13:58:12Z</time>
      </trkpt>
      <trkpt lat="60.11854034" lon="30.52005105">
        <ele>49.16</ele>
        <time>2026-08-20T13:58:33Z</time>
      </trkpt>
      <trkpt lat="60.1185416" lon="30.52005624">
        <ele>48.68</ele>
        <time>2026-08-20T13:58:56Z</time>
      </trkpt>
      <trkpt lat="60.11854227" lon="30.52004686">
        <ele>49.16</ele>
        <time>2026-08-20T13:59:19Z</time>
      </trkpt>
      <trkpt lat="60.11854202" lon="30.52004233">
        <ele>49.16</ele>
        <time>2026-08-20T14:00:02Z</time>
      </trkpt>
      <trkpt lat="60.11852751" lon="30.52004744">
        <ele>48.68</ele>
        <time>2026-08-20T14:00:23Z</time>
      </trkpt>
      <trkpt lat="60.11852869" lon="30.52004057">
        <ele>49.65</ele>
        <time>2026-08-20T14:00:47Z</time>
      </trkpt>
      <trkpt lat="60.11853447" lon="30.52004828">
        <ele>49.65</ele>
        <time>2026-08-20T14:01:12Z</time>
      </trkpt>
      <trkpt lat="60.11853891" lon="30.52003789">
        <ele>49.16</ele>
        <time>2026-08-20T14:01:54Z</time>
      </trkpt>
      <trkpt lat="60.11853673" lon="30.52003177">
        <ele>49.16</ele>
        <time>2026-08-20T14:02:25Z</time>
      </trkpt>
      <trkpt lat="60.11854135" lon="30.5200363">
        <ele>48.68</ele>
        <time>2026-08-20T14:02:47Z</time>
      </trkpt>
      <trkpt lat="60.11854151" lon="30.52003847">
        <ele>49.16</ele>
        <time>2026-08-20T14:03:17Z</time>
      </trkpt>
      <trkpt lat="60.11854277" lon="30.52003177">
        <ele>48.68</ele>
        <time>2026-08-20T14:03:42Z</time>
      </trkpt>
      <trkpt lat="60.118553" lon="30.52003093">
        <ele>48.68</ele>
        <time>2026-08-20T14:04:05Z</time>
      </trkpt>
      <trkpt lat="60.11855534" lon="30.52002984">
        <ele>48.68</ele>
        <time>2026-08-20T14:04:24Z</time>
      </trkpt>
      <trkpt lat="60.11855341" lon="30.52002699">
        <ele>49.16</ele>
        <time>2026-08-20T14:04:52Z</time>
      </trkpt>
      <trkpt lat="60.11855518" lon="30.5200311">
        <ele>49.16</ele>
        <time>2026-08-20T14:05:13Z</time>
      </trkpt>
      <trkpt lat="60.11855828" lon="30.52002649">
        <ele>49.16</ele>
        <time>2026-08-20T14:05:39Z</time>
      </trkpt>
      <trkpt lat="60.11855895" lon="30.52002917">
        <ele>49.16</ele>
        <time>2026-08-20T14:06:15Z</time>
      </trkpt>
      <trkpt lat="60.11854998" lon="30.52002515">
        <ele>49.65</ele>
        <time>2026-08-20T14:06:40Z</time>
      </trkpt>
      <trkpt lat="60.11854487" lon="30.52002003">
        <ele>49.16</ele>
        <time>2026-08-20T14:07:05Z</time>
      </trkpt>
      <trkpt lat="60.11854604" lon="30.52001048">
        <ele>49.65</ele>
        <time>2026-08-20T14:07:36Z</time>
      </trkpt>
      <trkpt lat="60.11854495" lon="30.520014">
        <ele>49.16</ele>
        <time>2026-08-20T14:08:05Z</time>
      </trkpt>
      <trkpt lat="60.11854604" lon="30.52001853">
        <ele>49.65</ele>
        <time>2026-08-20T14:08:35Z</time>
      </trkpt>
      <trkpt lat="60.11854772" lon="30.52001727">
        <ele>49.65</ele>
        <time>2026-08-20T14:08:56Z</time>
      </trkpt>
      <trkpt lat="60.11853648" lon="30.52002347">
        <ele>49.65</ele>
        <time>2026-08-20T14:09:20Z</time>
      </trkpt>
      <trkpt lat="60.11851997" lon="30.52004074">
        <ele>49.65</ele>
        <time>2026-08-20T14:09:53Z</time>
      </trkpt>
      <trkpt lat="60.11851905" lon="30.52001006">
        <ele>49.65</ele>
        <time>2026-08-20T14:10:22Z</time>
      </trkpt>
      <trkpt lat="60.11851938" lon="30.51999648">
        <ele>49.65</ele>
        <time>2026-08-20T14:10:48Z</time>
      </trkpt>
      <trkpt lat="60.11852005" lon="30.52000319">
        <ele>49.65</ele>
        <time>2026-08-20T14:11:17Z</time>
      </trkpt>
      <trkpt lat="60.11852441" lon="30.52001785">
        <ele>49.65</ele>
        <time>2026-08-20T14:11:44Z</time>
      </trkpt>
      <trkpt lat="60.11852701" lon="30.52002582">
        <ele>49.65</ele>
        <time>2026-08-20T14:12:11Z</time>
      </trkpt>
      <trkpt lat="60.11853104" lon="30.52004619">
        <ele>49.65</ele>
        <time>2026-08-20T14:12:42Z</time>
      </trkpt>
      <trkpt lat="60.11853657" lon="30.52007058">
        <ele>49.65</ele>
        <time>2026-08-20T14:13:03Z</time>
      </trkpt>
      <trkpt lat="60.11854428" lon="30.52007234">
        <ele>49.65</ele>
        <time>2026-08-20T14:13:36Z</time>
      </trkpt>
      <trkpt lat="60.11855358" lon="30.52008952">
        <ele>49.65</ele>
        <time>2026-08-20T14:14:07Z</time>
      </trkpt>
      <trkpt lat="60.11853036" lon="30.52009078">
        <ele>49.65</ele>
        <time>2026-08-20T14:14:24Z</time>
      </trkpt>
      <trkpt lat="60.11850824" lon="30.52020787">
        <ele>49.65</ele>
        <time>2026-08-20T14:14:41Z</time>
      </trkpt>
      <trkpt lat="60.11855165" lon="30.52026562">
        <ele>50.13</ele>
        <time>2026-08-20T14:14:58Z</time>
      </trkpt>
      <trkpt lat="60.1185903" lon="30.52037065">
        <ele>50.13</ele>
        <time>2026-08-20T14:15:14Z</time>
      </trkpt>
      <trkpt lat="60.11862776" lon="30.52054793">
        <ele>50.13</ele>
        <time>2026-08-20T14:15:35Z</time>
      </trkpt>
      <trkpt lat="60.11867152" lon="30.52075144">
        <ele>50.61</ele>
        <time>2026-08-20T14:15:55Z</time>
      </trkpt>
      <trkpt lat="60.11871058" lon="30.5207299">
        <ele>50.61</ele>
        <time>2026-08-20T14:16:14Z</time>
      </trkpt>
      <trkpt lat="60.11878869" lon="30.52068003">
        <ele>50.61</ele>
        <time>2026-08-20T14:16:31Z</time>
      </trkpt>
      <trkpt lat="60.11888173" lon="30.52065957">
        <ele>50.61</ele>
        <time>2026-08-20T14:16:53Z</time>
      </trkpt>
      <trkpt lat="60.1190254" lon="30.52080307">
        <ele>51.09</ele>
        <time>2026-08-20T14:17:16Z</time>
      </trkpt>
      <trkpt lat="60.11913034" lon="30.52088396">
        <ele>51.09</ele>
        <time>2026-08-20T14:17:37Z</time>
      </trkpt>
      <trkpt lat="60.11921206" lon="30.52088697">
        <ele>51.09</ele>
        <time>2026-08-20T14:17:54Z</time>
      </trkpt>
      <trkpt lat="60.11931575" lon="30.52103609">
        <ele>51.57</ele>
        <time>2026-08-20T14:18:08Z</time>
      </trkpt>
      <trkpt lat="60.11943779" lon="30.5212588">
        <ele>52.53</ele>
        <time>2026-08-20T14:18:32Z</time>
      </trkpt>
      <trkpt lat="60.11940409" lon="30.52136516">
        <ele>52.53</ele>
        <time>2026-08-20T14:18:39Z</time>
      </trkpt>
      <trkpt lat="60.11925339" lon="30.52163657">
        <ele>51.57</ele>
        <time>2026-08-20T14:18:59Z</time>
      </trkpt>
      <trkpt lat="60.11908189" lon="30.52174947">
        <ele>53.01</ele>
        <time>2026-08-20T14:19:20Z</time>
      </trkpt>
      <trkpt lat="60.11904426" lon="30.52171544">
        <ele>52.53</ele>
        <time>2026-08-20T14:19:38Z</time>
      </trkpt>
      <trkpt lat="60.11892641" lon="30.52167093">
        <ele>51.57</ele>
        <time>2026-08-20T14:19:59Z</time>
      </trkpt>
      <trkpt lat="60.11887427" lon="30.52172625">
        <ele>52.53</ele>
        <time>2026-08-20T14:20:21Z</time>
      </trkpt>
      <trkpt lat="60.11883832" lon="30.52179105">
        <ele>52.53</ele>
        <time>2026-08-20T14:20:50Z</time>
      </trkpt>
      <trkpt lat="60.11870907" lon="30.52215583">
        <ele>55.41</ele>
        <time>2026-08-20T14:21:13Z</time>
      </trkpt>
      <trkpt lat="60.11872876" lon="30.52229798">
        <ele>55.89</ele>
        <time>2026-08-20T14:21:34Z</time>
      </trkpt>
      <trkpt lat="60.11874343" lon="30.52248968">
        <ele>57.34</ele>
        <time>2026-08-20T14:21:56Z</time>
      </trkpt>
      <trkpt lat="60.11876045" lon="30.52260283">
        <ele>58.3</ele>
        <time>2026-08-20T14:22:12Z</time>
      </trkpt>
      <trkpt lat="60.11882407" lon="30.52285027">
        <ele>59.26</ele>
        <time>2026-08-20T14:22:34Z</time>
      </trkpt>
      <trkpt lat="60.11885684" lon="30.52287055">
        <ele>59.74</ele>
        <time>2026-08-20T14:22:38Z</time>
      </trkpt>
      <trkpt lat="60.11886489" lon="30.52293308">
        <ele>59.74</ele>
        <time>2026-08-20T14:22:41Z</time>
      </trkpt>
      <trkpt lat="60.11883555" lon="30.52323843">
        <ele>61.18</ele>
        <time>2026-08-20T14:22:57Z</time>
      </trkpt>
      <trkpt lat="60.11871628" lon="30.52336022">
        <ele>57.82</ele>
        <time>2026-08-20T14:23:15Z</time>
      </trkpt>
      <trkpt lat="60.11864838" lon="30.52344463">
        <ele>56.86</ele>
        <time>2026-08-20T14:23:20Z</time>
      </trkpt>
      <trkpt lat="60.11851704" lon="30.5235686">
        <ele>60.22</ele>
        <time>2026-08-20T14:23:36Z</time>
      </trkpt>
      <trkpt lat="60.11838745" lon="30.52381603">
        <ele>63.58</ele>
        <time>2026-08-20T14:23:57Z</time>
      </trkpt>
      <trkpt lat="60.11838058" lon="30.52399247">
        <ele>65.03</ele>
        <time>2026-08-20T14:24:22Z</time>
      </trkpt>
      <trkpt lat="60.11838905" lon="30.52390882">
        <ele>65.03</ele>
        <time>2026-08-20T14:24:51Z</time>
      </trkpt>
      <trkpt lat="60.1183064" lon="30.52386565">
        <ele>64.07</ele>
        <time>2026-08-20T14:25:06Z</time>
      </trkpt>
      <trkpt lat="60.11824002" lon="30.52371813">
        <ele>63.1</ele>
        <time>2026-08-20T14:25:21Z</time>
      </trkpt>
      <trkpt lat="60.11814245" lon="30.52361897">
        <ele>62.62</ele>
        <time>2026-08-20T14:25:33Z</time>
      </trkpt>
      <trkpt lat="60.11803147" lon="30.52362476">
        <ele>60.7</ele>
        <time>2026-08-20T14:25:41Z</time>
      </trkpt>
      <trkpt lat="60.11788865" lon="30.5236432">
        <ele>58.3</ele>
        <time>2026-08-20T14:25:58Z</time>
      </trkpt>
      <trkpt lat="60.11772939" lon="30.52386045">
        <ele>58.3</ele>
        <time>2026-08-20T14:26:20Z</time>
      </trkpt>
      <trkpt lat="60.11764021" lon="30.52420579">
        <ele>56.86</ele>
        <time>2026-08-20T14:26:41Z</time>
      </trkpt>
      <trkpt lat="60.11750006" lon="30.52446462">
        <ele>56.37</ele>
        <time>2026-08-20T14:27:02Z</time>
      </trkpt>
      <trkpt lat="60.11734089" lon="30.52473544">
        <ele>56.37</ele>
        <time>2026-08-20T14:27:25Z</time>
      </trkpt>
      <trkpt lat="60.11728263" lon="30.52495798">
        <ele>56.86</ele>
        <time>2026-08-20T14:27:51Z</time>
      </trkpt>
      <trkpt lat="60.11713796" lon="30.52534254">
        <ele>56.37</ele>
        <time>2026-08-20T14:28:18Z</time>
      </trkpt>
      <trkpt lat="60.11708767" lon="30.52565628">
        <ele>56.37</ele>
        <time>2026-08-20T14:28:45Z</time>
      </trkpt>
      <trkpt lat="60.11698348" lon="30.52583054">
        <ele>56.37</ele>
        <time>2026-08-20T14:29:08Z</time>
      </trkpt>
      <trkpt lat="60.11689925" lon="30.52611862">
        <ele>55.89</ele>
        <time>2026-08-20T14:29:26Z</time>
      </trkpt>
      <trkpt lat="60.11675114" lon="30.52647008">
        <ele>56.86</ele>
        <time>2026-08-20T14:29:54Z</time>
      </trkpt>
      <trkpt lat="60.11665232" lon="30.52658717">
        <ele>57.82</ele>
        <time>2026-08-20T14:30:07Z</time>
      </trkpt>
      <trkpt lat="60.11656137" lon="30.52688129">
        <ele>60.22</ele>
        <time>2026-08-20T14:30:28Z</time>
      </trkpt>
      <trkpt lat="60.11651628" lon="30.52728899">
        <ele>62.62</ele>
        <time>2026-08-20T14:30:54Z</time>
      </trkpt>
      <trkpt lat="60.11649666" lon="30.52735663">
        <ele>62.62</ele>
        <time>2026-08-20T14:30:59Z</time>
      </trkpt>
      <trkpt lat="60.11646071" lon="30.52737557">
        <ele>62.62</ele>
        <time>2026-08-20T14:31:02Z</time>
      </trkpt>
      <trkpt lat="60.11631025" lon="30.52746685">
        <ele>60.7</ele>
        <time>2026-08-20T14:31:16Z</time>
      </trkpt>
      <trkpt lat="60.11628678" lon="30.52749745">
        <ele>60.22</ele>
        <time>2026-08-20T14:31:19Z</time>
      </trkpt>
      <trkpt lat="60.11613775" lon="30.52762292">
        <ele>58.3</ele>
        <time>2026-08-20T14:31:33Z</time>
      </trkpt>
      <trkpt lat="60.11600381" lon="30.52775787">
        <ele>57.82</ele>
        <time>2026-08-20T14:31:48Z</time>
      </trkpt>
      <trkpt lat="60.11597154" lon="30.52781143">
        <ele>57.82</ele>
        <time>2026-08-20T14:31:55Z</time>
      </trkpt>
      <trkpt lat="60.11595729" lon="30.52781562">
        <ele>57.82</ele>
        <time>2026-08-20T14:31:57Z</time>
      </trkpt>
      <trkpt lat="60.11579979" lon="30.52781747">
        <ele>56.86</ele>
        <time>2026-08-20T14:32:14Z</time>
      </trkpt>
      <trkpt lat="60.11564791" lon="30.52792249">
        <ele>56.86</ele>
        <time>2026-08-20T14:32:28Z</time>
      </trkpt>
      <trkpt lat="60.11548597" lon="30.52814218">
        <ele>57.82</ele>
        <time>2026-08-20T14:32:45Z</time>
      </trkpt>
      <trkpt lat="60.11546074" lon="30.52818325">
        <ele>58.3</ele>
        <time>2026-08-20T14:33:02Z</time>
      </trkpt>
      <trkpt lat="60.11546091" lon="30.52819147">
        <ele>57.82</ele>
        <time>2026-08-20T14:33:36Z</time>
      </trkpt>
      <trkpt lat="60.11546167" lon="30.52819138">
        <ele>58.3</ele>
        <time>2026-08-20T14:34:07Z</time>
      </trkpt>
      <trkpt lat="60.11546418" lon="30.52818929">
        <ele>57.82</ele>
        <time>2026-08-20T14:34:36Z</time>
      </trkpt>
      <trkpt lat="60.1154553" lon="30.52817998">
        <ele>57.82</ele>
        <time>2026-08-20T14:35:08Z</time>
      </trkpt>
      <trkpt lat="60.11545337" lon="30.52818174">
        <ele>57.82</ele>
        <time>2026-08-20T14:35:46Z</time>
      </trkpt>
      <trkpt lat="60.11545538" lon="30.52818317">
        <ele>57.82</ele>
        <time>2026-08-20T14:36:16Z</time>
      </trkpt>
      <trkpt lat="60.11545337" lon="30.52817898">
        <ele>57.82</ele>
        <time>2026-08-20T14:36:54Z</time>
      </trkpt>
      <trkpt lat="60.11545337" lon="30.52818443">
        <ele>57.82</ele>
        <time>2026-08-20T14:37:25Z</time>
      </trkpt>
      <trkpt lat="60.11545328" lon="30.52818459">
        <ele>57.82</ele>
        <time>2026-08-20T14:37:52Z</time>
      </trkpt>
      <trkpt lat="60.11545287" lon="30.5281877">
        <ele>57.82</ele>
        <time>2026-08-20T14:38:21Z</time>
      </trkpt>
      <trkpt lat="60.11544599" lon="30.52818434">
        <ele>57.82</ele>
        <time>2026-08-20T14:39:48Z</time>
      </trkpt>
      <trkpt lat="60.1154475" lon="30.52818443">
        <ele>57.82</ele>
        <time>2026-08-20T14:40:10Z</time>
      </trkpt>
      <trkpt lat="60.11544708" lon="30.52817948">
        <ele>57.82</ele>
        <time>2026-08-20T14:40:40Z</time>
      </trkpt>
      <trkpt lat="60.11544691" lon="30.52816523">
        <ele>57.82</ele>
        <time>2026-08-20T14:41:16Z</time>
      </trkpt>
      <trkpt lat="60.1154449" lon="30.52816087">
        <ele>57.34</ele>
        <time>2026-08-20T14:41:55Z</time>
      </trkpt>
      <trkpt lat="60.11544775" lon="30.52816632">
        <ele>57.34</ele>
        <time>2026-08-20T14:42:32Z</time>
      </trkpt>
      <trkpt lat="60.11545094" lon="30.52816775">
        <ele>57.82</ele>
        <time>2026-08-20T14:43:03Z</time>
      </trkpt>
      <trkpt lat="60.11544934" lon="30.52816398">
        <ele>57.34</ele>
        <time>2026-08-20T14:43:23Z</time>
      </trkpt>
      <trkpt lat="60.115448" lon="30.52816004">
        <ele>57.34</ele>
        <time>2026-08-20T14:44:04Z</time>
      </trkpt>
      <trkpt lat="60.11544901" lon="30.52816045">
        <ele>57.34</ele>
        <time>2026-08-20T14:44:33Z</time>
      </trkpt>
      <trkpt lat="60.11545345" lon="30.52817353">
        <ele>57.34</ele>
        <time>2026-08-20T14:45:03Z</time>
      </trkpt>
      <trkpt lat="60.11545538" lon="30.52817026">
        <ele>56.86</ele>
        <time>2026-08-20T14:45:28Z</time>
      </trkpt>
      <trkpt lat="60.1154589" lon="30.52816406">
        <ele>56.86</ele>
        <time>2026-08-20T14:45:50Z</time>
      </trkpt>
      <trkpt lat="60.11546837" lon="30.52817353">
        <ele>56.86</ele>
        <time>2026-08-20T14:46:19Z</time>
      </trkpt>
      <trkpt lat="60.11546988" lon="30.52817395">
        <ele>56.86</ele>
        <time>2026-08-20T14:46:48Z</time>
      </trkpt>
      <trkpt lat="60.11547097" lon="30.5281706">
        <ele>56.86</ele>
        <time>2026-08-20T14:47:17Z</time>
      </trkpt>
      <trkpt lat="60.1154765" lon="30.52817219">
        <ele>56.86</ele>
        <time>2026-08-20T14:47:43Z</time>
      </trkpt>
      <trkpt lat="60.11547625" lon="30.52817328">
        <ele>56.86</ele>
        <time>2026-08-20T14:48:15Z</time>
      </trkpt>
      <trkpt lat="60.11547281" lon="30.5281706">
        <ele>56.86</ele>
        <time>2026-08-20T14:48:46Z</time>
      </trkpt>
      <trkpt lat="60.11547307" lon="30.52816523">
        <ele>56.86</ele>
        <time>2026-08-20T14:49:12Z</time>
      </trkpt>
      <trkpt lat="60.11547038" lon="30.52816205">
        <ele>56.37</ele>
        <time>2026-08-20T14:49:46Z</time>
      </trkpt>
      <trkpt lat="60.11547189" lon="30.52816297">
        <ele>56.86</ele>
        <time>2026-08-20T14:50:17Z</time>
      </trkpt>
      <trkpt lat="60.11546904" lon="30.52815693">
        <ele>56.86</ele>
        <time>2026-08-20T14:50:48Z</time>
      </trkpt>
      <trkpt lat="60.11546359" lon="30.52814528">
        <ele>56.86</ele>
        <time>2026-08-20T14:51:17Z</time>
      </trkpt>
      <trkpt lat="60.11546586" lon="30.52812927">
        <ele>56.86</ele>
        <time>2026-08-20T14:51:43Z</time>
      </trkpt>
      <trkpt lat="60.11546535" lon="30.52811637">
        <ele>56.86</ele>
        <time>2026-08-20T14:52:11Z</time>
      </trkpt>
      <trkpt lat="60.11546661" lon="30.52811025">
        <ele>56.37</ele>
        <time>2026-08-20T14:52:38Z</time>
      </trkpt>
      <trkpt lat="60.11546267" lon="30.52809256">
        <ele>56.37</ele>
        <time>2026-08-20T14:53:04Z</time>
      </trkpt>
      <trkpt lat="60.11546217" lon="30.52806842">
        <ele>56.86</ele>
        <time>2026-08-20T14:53:32Z</time>
      </trkpt>
      <trkpt lat="60.11545798" lon="30.52805048">
        <ele>56.86</ele>
        <time>2026-08-20T14:54:02Z</time>
      </trkpt>
      <trkpt lat="60.11545907" lon="30.52804093">
        <ele>56.86</ele>
        <time>2026-08-20T14:54:34Z</time>
      </trkpt>
      <trkpt lat="60.11546276" lon="30.52804478">
        <ele>56.86</ele>
        <time>2026-08-20T14:55:11Z</time>
      </trkpt>
      <trkpt lat="60.11547424" lon="30.52803649">
        <ele>56.86</ele>
        <time>2026-08-20T14:55:34Z</time>
      </trkpt>
      <trkpt lat="60.11548019" lon="30.52804386">
        <ele>56.86</ele>
        <time>2026-08-20T14:55:52Z</time>
      </trkpt>
      <trkpt lat="60.11548203" lon="30.52805115">
        <ele>56.37</ele>
        <time>2026-08-20T14:56:15Z</time>
      </trkpt>
      <trkpt lat="60.11548807" lon="30.5280385">
        <ele>56.86</ele>
        <time>2026-08-20T14:56:33Z</time>
      </trkpt>
      <trkpt lat="60.11549444" lon="30.52804235">
        <ele>56.86</ele>
        <time>2026-08-20T14:56:59Z</time>
      </trkpt>
      <trkpt lat="60.11550156" lon="30.52804805">
        <ele>56.86</ele>
        <time>2026-08-20T14:57:21Z</time>
      </trkpt>
      <trkpt lat="60.1155133" lon="30.52805325">
        <ele>56.86</ele>
        <time>2026-08-20T14:57:42Z</time>
      </trkpt>
      <trkpt lat="60.11552428" lon="30.52805845">
        <ele>56.37</ele>
        <time>2026-08-20T14:58:05Z</time>
      </trkpt>
      <trkpt lat="60.11552135" lon="30.52804453">
        <ele>56.37</ele>
        <time>2026-08-20T14:58:28Z</time>
      </trkpt>
      <trkpt lat="60.11551908" lon="30.52803045">
        <ele>56.86</ele>
        <time>2026-08-20T14:59:02Z</time>
      </trkpt>
      <trkpt lat="60.1155216" lon="30.52803397">
        <ele>56.86</ele>
        <time>2026-08-20T14:59:32Z</time>
      </trkpt>
      <trkpt lat="60.11551439" lon="30.52806959">
        <ele>57.34</ele>
        <time>2026-08-20T14:59:57Z</time>
      </trkpt>
      <trkpt lat="60.11551363" lon="30.52808535">
        <ele>57.82</ele>
        <time>2026-08-20T15:00:25Z</time>
      </trkpt>
      <trkpt lat="60.11552" lon="30.52809508">
        <ele>56.37</ele>
        <time>2026-08-20T15:01:00Z</time>
      </trkpt>
      <trkpt lat="60.11551271" lon="30.52810765">
        <ele>57.34</ele>
        <time>2026-08-20T15:01:32Z</time>
      </trkpt>
      <trkpt lat="60.11551045" lon="30.5281307">
        <ele>57.34</ele>
        <time>2026-08-20T15:01:59Z</time>
      </trkpt>
      <trkpt lat="60.11553844" lon="30.52827478">
        <ele>57.82</ele>
        <time>2026-08-20T15:02:19Z</time>
      </trkpt>
      <trkpt lat="60.11552948" lon="30.52828442">
        <ele>57.82</ele>
        <time>2026-08-20T15:02:52Z</time>
      </trkpt>
      <trkpt lat="60.11550944" lon="30.5283146">
        <ele>57.34</ele>
        <time>2026-08-20T15:03:25Z</time>
      </trkpt>
      <trkpt lat="60.11548631" lon="30.52827135">
        <ele>57.34</ele>
        <time>2026-08-20T15:03:45Z</time>
      </trkpt>
      <trkpt lat="60.11547659" lon="30.52827328">
        <ele>57.34</ele>
        <time>2026-08-20T15:04:01Z</time>
      </trkpt>
      <trkpt lat="60.11546158" lon="30.52825794">
        <ele>57.34</ele>
        <time>2026-08-20T15:04:11Z</time>
      </trkpt>
      <trkpt lat="60.11541506" lon="30.52818778">
        <ele>57.34</ele>
        <time>2026-08-20T15:04:15Z</time>
      </trkpt>
      <trkpt lat="60.11527995" lon="30.52794194">
        <ele>56.86</ele>
        <time>2026-08-20T15:04:27Z</time>
      </trkpt>
      <trkpt lat="60.11522211" lon="30.52781428">
        <ele>56.37</ele>
        <time>2026-08-20T15:04:33Z</time>
      </trkpt>
      <trkpt lat="60.11506319" lon="30.52740583">
        <ele>56.37</ele>
        <time>2026-08-20T15:04:49Z</time>
      </trkpt>
      <trkpt lat="60.11493579" lon="30.5270719">
        <ele>54.93</ele>
        <time>2026-08-20T15:05:04Z</time>
      </trkpt>
      <trkpt lat="60.11477309" lon="30.52668172">
        <ele>53.49</ele>
        <time>2026-08-20T15:05:20Z</time>
      </trkpt>
      <trkpt lat="60.1146389" lon="30.52629724">
        <ele>51.57</ele>
        <time>2026-08-20T15:05:34Z</time>
      </trkpt>
      <trkpt lat="60.11449548" lon="30.52593154">
        <ele>50.61</ele>
        <time>2026-08-20T15:05:49Z</time>
      </trkpt>
      <trkpt lat="60.11438577" lon="30.52563524">
        <ele>50.13</ele>
        <time>2026-08-20T15:06:01Z</time>
      </trkpt>
      <trkpt lat="60.11437688" lon="30.52561789">
        <ele>50.13</ele>
        <time>2026-08-20T15:06:02Z</time>
      </trkpt>
      <trkpt lat="60.11423171" lon="30.52517725">
        <ele>51.09</ele>
        <time>2026-08-20T15:06:20Z</time>
      </trkpt>
      <trkpt lat="60.11408779" lon="30.52471164">
        <ele>51.57</ele>
        <time>2026-08-20T15:06:38Z</time>
      </trkpt>
      <trkpt lat="60.11402945" lon="30.52441617">
        <ele>52.05</ele>
        <time>2026-08-20T15:06:49Z</time>
      </trkpt>
      <trkpt lat="60.11402861" lon="30.52439027">
        <ele>52.05</ele>
        <time>2026-08-20T15:06:50Z</time>
      </trkpt>
      <trkpt lat="60.11402518" lon="30.52436303">
        <ele>52.05</ele>
        <time>2026-08-20T15:06:51Z</time>
      </trkpt>
      <trkpt lat="60.11401914" lon="30.52433454">
        <ele>52.05</ele>
        <time>2026-08-20T15:06:52Z</time>
      </trkpt>
      <trkpt lat="60.1140152" lon="30.52430319">
        <ele>52.05</ele>
        <time>2026-08-20T15:06:53Z</time>
      </trkpt>
      <trkpt lat="60.11401244" lon="30.52427108">
        <ele>52.05</ele>
        <time>2026-08-20T15:06:54Z</time>
      </trkpt>
      <trkpt lat="60.11398016" lon="30.52399306">
        <ele>52.05</ele>
        <time>2026-08-20T15:07:08Z</time>
      </trkpt>
      <trkpt lat="60.11397237" lon="30.52395944">
        <ele>52.05</ele>
        <time>2026-08-20T15:07:10Z</time>
      </trkpt>
      <trkpt lat="60.11395846" lon="30.523882">
        <ele>52.05</ele>
        <time>2026-08-20T15:07:13Z</time>
      </trkpt>
      <trkpt lat="60.11395485" lon="30.52385568">
        <ele>52.05</ele>
        <time>2026-08-20T15:07:14Z</time>
      </trkpt>
      <trkpt lat="60.11395209" lon="30.52382693">
        <ele>52.05</ele>
        <time>2026-08-20T15:07:15Z</time>
      </trkpt>
      <trkpt lat="60.11392057" lon="30.52365946">
        <ele>52.05</ele>
        <time>2026-08-20T15:07:21Z</time>
      </trkpt>
      <trkpt lat="60.11391789" lon="30.52363138">
        <ele>52.05</ele>
        <time>2026-08-20T15:07:22Z</time>
      </trkpt>
      <trkpt lat="60.11391529" lon="30.52360707">
        <ele>52.05</ele>
        <time>2026-08-20T15:07:23Z</time>
      </trkpt>
      <trkpt lat="60.11391437" lon="30.52358109">
        <ele>52.05</ele>
        <time>2026-08-20T15:07:24Z</time>
      </trkpt>
      <trkpt lat="60.11391361" lon="30.52355133">
        <ele>52.05</ele>
        <time>2026-08-20T15:07:25Z</time>
      </trkpt>
      <trkpt lat="60.11390925" lon="30.52352099">
        <ele>52.05</ele>
        <time>2026-08-20T15:07:26Z</time>
      </trkpt>
      <trkpt lat="60.11390464" lon="30.52348738">
        <ele>52.05</ele>
        <time>2026-08-20T15:07:27Z</time>
      </trkpt>
      <trkpt lat="60.11390179" lon="30.52344983">
        <ele>52.05</ele>
        <time>2026-08-20T15:07:28Z</time>
      </trkpt>
      <trkpt lat="60.11389794" lon="30.52341454">
        <ele>52.05</ele>
        <time>2026-08-20T15:07:29Z</time>
      </trkpt>
      <trkpt lat="60.11389115" lon="30.52293308">
        <ele>52.53</ele>
        <time>2026-08-20T15:07:46Z</time>
      </trkpt>
      <trkpt lat="60.11388679" lon="30.52290509">
        <ele>52.53</ele>
        <time>2026-08-20T15:07:47Z</time>
      </trkpt>
      <trkpt lat="60.11388" lon="30.52287893">
        <ele>53.01</ele>
        <time>2026-08-20T15:07:48Z</time>
      </trkpt>
      <trkpt lat="60.11387598" lon="30.52285035">
        <ele>53.01</ele>
        <time>2026-08-20T15:07:49Z</time>
      </trkpt>
      <trkpt lat="60.11385326" lon="30.52235305">
        <ele>53.01</ele>
        <time>2026-08-20T15:08:05Z</time>
      </trkpt>
      <trkpt lat="60.11384186" lon="30.52224836">
        <ele>53.01</ele>
        <time>2026-08-20T15:08:09Z</time>
      </trkpt>
      <trkpt lat="60.1138396" lon="30.52221509">
        <ele>53.01</ele>
        <time>2026-08-20T15:08:10Z</time>
      </trkpt>
      <trkpt lat="60.1138334" lon="30.52218307">
        <ele>53.01</ele>
        <time>2026-08-20T15:08:11Z</time>
      </trkpt>
      <trkpt lat="60.11382627" lon="30.52215105">
        <ele>53.01</ele>
        <time>2026-08-20T15:08:12Z</time>
      </trkpt>
      <trkpt lat="60.11382175" lon="30.52212046">
        <ele>53.01</ele>
        <time>2026-08-20T15:08:13Z</time>
      </trkpt>
      <trkpt lat="60.11381797" lon="30.52209129">
        <ele>53.01</ele>
        <time>2026-08-20T15:08:14Z</time>
      </trkpt>
      <trkpt lat="60.1137899" lon="30.52166062">
        <ele>53.01</ele>
        <time>2026-08-20T15:08:28Z</time>
      </trkpt>
      <trkpt lat="60.11376509" lon="30.52126324">
        <ele>53.01</ele>
        <time>2026-08-20T15:08:42Z</time>
      </trkpt>
      <trkpt lat="60.11372535" lon="30.52082495">
        <ele>53.01</ele>
        <time>2026-08-20T15:08:56Z</time>
      </trkpt>
      <trkpt lat="60.11368479" lon="30.52041792">
        <ele>53.01</ele>
        <time>2026-08-20T15:09:09Z</time>
      </trkpt>
      <trkpt lat="60.11366794" lon="30.52024433">
        <ele>53.01</ele>
        <time>2026-08-20T15:09:14Z</time>
      </trkpt>
      <trkpt lat="60.11363257" lon="30.52009497">
        <ele>53.01</ele>
        <time>2026-08-20T15:09:18Z</time>
      </trkpt>
      <trkpt lat="60.11364028" lon="30.52007779">
        <ele>53.01</ele>
        <time>2026-08-20T15:09:19Z</time>
      </trkpt>
      <trkpt lat="60.11364925" lon="30.52005884">
        <ele>53.01</ele>
        <time>2026-08-20T15:09:20Z</time>
      </trkpt>
      <trkpt lat="60.11365486" lon="30.51997863">
        <ele>53.01</ele>
        <time>2026-08-20T15:09:24Z</time>
      </trkpt>
      <trkpt lat="60.11364841" lon="30.51995197">
        <ele>53.01</ele>
        <time>2026-08-20T15:09:25Z</time>
      </trkpt>
      <trkpt lat="60.11364598" lon="30.51992188">
        <ele>53.01</ele>
        <time>2026-08-20T15:09:26Z</time>
      </trkpt>
      <trkpt lat="60.11364824" lon="30.51989263">
        <ele>53.01</ele>
        <time>2026-08-20T15:09:27Z</time>
      </trkpt>
      <trkpt lat="60.1136526" lon="30.51986748">
        <ele>53.01</ele>
        <time>2026-08-20T15:09:28Z</time>
      </trkpt>
      <trkpt lat="60.11365838" lon="30.51949466">
        <ele>53.01</ele>
        <time>2026-08-20T15:09:42Z</time>
      </trkpt>
      <trkpt lat="60.11365796" lon="30.51949834">
        <ele>53.01</ele>
        <time>2026-08-20T15:10:12Z</time>
      </trkpt>
      <trkpt lat="60.11366551" lon="30.51949524">
        <ele>53.01</ele>
        <time>2026-08-20T15:10:39Z</time>
      </trkpt>
      <trkpt lat="60.11366786" lon="30.51950136">
        <ele>53.01</ele>
        <time>2026-08-20T15:11:23Z</time>
      </trkpt>
      <trkpt lat="60.11366685" lon="30.51949005">
        <ele>53.01</ele>
        <time>2026-08-20T15:11:52Z</time>
      </trkpt>
      <trkpt lat="60.11366844" lon="30.51946314">
        <ele>53.01</ele>
        <time>2026-08-20T15:11:53Z</time>
      </trkpt>
      <trkpt lat="60.11367003" lon="30.51943322">
        <ele>53.01</ele>
        <time>2026-08-20T15:11:54Z</time>
      </trkpt>
      <trkpt lat="60.11367188" lon="30.51939994">
        <ele>53.01</ele>
        <time>2026-08-20T15:11:55Z</time>
      </trkpt>
      <trkpt lat="60.11367179" lon="30.51936926">
        <ele>53.01</ele>
        <time>2026-08-20T15:11:56Z</time>
      </trkpt>
      <trkpt lat="60.11366878" lon="30.51934144">
        <ele>52.53</ele>
        <time>2026-08-20T15:11:57Z</time>
      </trkpt>
      <trkpt lat="60.11366601" lon="30.51931369">
        <ele>52.53</ele>
        <time>2026-08-20T15:11:58Z</time>
      </trkpt>
      <trkpt lat="60.11366484" lon="30.51928586">
        <ele>52.53</ele>
        <time>2026-08-20T15:11:59Z</time>
      </trkpt>
      <trkpt lat="60.11366366" lon="30.51925502">
        <ele>52.53</ele>
        <time>2026-08-20T15:12:00Z</time>
      </trkpt>
      <trkpt lat="60.11362125" lon="30.51874959">
        <ele>51.57</ele>
        <time>2026-08-20T15:12:16Z</time>
      </trkpt>
      <trkpt lat="60.11359175" lon="30.51837844">
        <ele>51.09</ele>
        <time>2026-08-20T15:12:31Z</time>
      </trkpt>
      <trkpt lat="60.11358554" lon="30.51835824">
        <ele>51.09</ele>
        <time>2026-08-20T15:12:38Z</time>
      </trkpt>
      <trkpt lat="60.11358295" lon="30.51833385">
        <ele>51.09</ele>
        <time>2026-08-20T15:12:39Z</time>
      </trkpt>
      <trkpt lat="60.11357909" lon="30.51830325">
        <ele>51.09</ele>
        <time>2026-08-20T15:12:40Z</time>
      </trkpt>
      <trkpt lat="60.11357557" lon="30.51827174">
        <ele>51.09</ele>
        <time>2026-08-20T15:12:41Z</time>
      </trkpt>
      <trkpt lat="60.11357356" lon="30.51824248">
        <ele>51.09</ele>
        <time>2026-08-20T15:12:42Z</time>
      </trkpt>
      <trkpt lat="60.11357205" lon="30.51821432">
        <ele>51.09</ele>
        <time>2026-08-20T15:12:43Z</time>
      </trkpt>
      <trkpt lat="60.11352059" lon="30.51773613">
        <ele>51.09</ele>
        <time>2026-08-20T15:13:00Z</time>
      </trkpt>
      <trkpt lat="60.11345671" lon="30.51727437">
        <ele>51.57</ele>
        <time>2026-08-20T15:13:16Z</time>
      </trkpt>
      <trkpt lat="60.11340341" lon="30.51694597">
        <ele>51.57</ele>
        <time>2026-08-20T15:13:30Z</time>
      </trkpt>
      <trkpt lat="60.1133646" lon="30.51635186">
        <ele>51.57</ele>
        <time>2026-08-20T15:13:50Z</time>
      </trkpt>
      <trkpt lat="60.11332244" lon="30.51573604">
        <ele>51.57</ele>
        <time>2026-08-20T15:14:10Z</time>
      </trkpt>
      <trkpt lat="60.11330685" lon="30.51550722">
        <ele>52.05</ele>
        <time>2026-08-20T15:14:20Z</time>
      </trkpt>
      <trkpt lat="60.11330375" lon="30.51548459">
        <ele>52.05</ele>
        <time>2026-08-20T15:14:21Z</time>
      </trkpt>
      <trkpt lat="60.11330148" lon="30.51546095">
        <ele>52.05</ele>
        <time>2026-08-20T15:14:22Z</time>
      </trkpt>
      <trkpt lat="60.11329855" lon="30.51543606">
        <ele>52.05</ele>
        <time>2026-08-20T15:14:23Z</time>
      </trkpt>
      <trkpt lat="60.11329721" lon="30.51540806">
        <ele>52.05</ele>
        <time>2026-08-20T15:14:24Z</time>
      </trkpt>
      <trkpt lat="60.11329561" lon="30.51538015">
        <ele>52.05</ele>
        <time>2026-08-20T15:14:25Z</time>
      </trkpt>
      <trkpt lat="60.1132936" lon="30.51535307">
        <ele>52.05</ele>
        <time>2026-08-20T15:14:26Z</time>
      </trkpt>
      <trkpt lat="60.1132527" lon="30.51493415">
        <ele>51.57</ele>
        <time>2026-08-20T15:14:41Z</time>
      </trkpt>
      <trkpt lat="60.11323015" lon="30.51447582">
        <ele>51.57</ele>
        <time>2026-08-20T15:14:57Z</time>
      </trkpt>
      <trkpt lat="60.11322781" lon="30.51444707">
        <ele>51.57</ele>
        <time>2026-08-20T15:14:58Z</time>
      </trkpt>
      <trkpt lat="60.11317575" lon="30.51396335">
        <ele>51.57</ele>
        <time>2026-08-20T15:15:14Z</time>
      </trkpt>
      <trkpt lat="60.11313426" lon="30.51341803">
        <ele>50.61</ele>
        <time>2026-08-20T15:15:33Z</time>
      </trkpt>
      <trkpt lat="60.11310141" lon="30.51284982">
        <ele>50.61</ele>
        <time>2026-08-20T15:15:52Z</time>
      </trkpt>
      <trkpt lat="60.11306008" lon="30.51230089">
        <ele>50.13</ele>
        <time>2026-08-20T15:16:11Z</time>
      </trkpt>
      <trkpt lat="60.11303158" lon="30.51203149">
        <ele>49.65</ele>
        <time>2026-08-20T15:16:20Z</time>
      </trkpt>
      <trkpt lat="60.113032" lon="30.51200073">
        <ele>49.65</ele>
        <time>2026-08-20T15:16:21Z</time>
      </trkpt>
      <trkpt lat="60.11302974" lon="30.51197274">
        <ele>49.65</ele>
        <time>2026-08-20T15:16:22Z</time>
      </trkpt>
      <trkpt lat="60.1130046" lon="30.51149379">
        <ele>48.2</ele>
        <time>2026-08-20T15:16:39Z</time>
      </trkpt>
      <trkpt lat="60.11297417" lon="30.51105936">
        <ele>47.72</ele>
        <time>2026-08-20T15:16:54Z</time>
      </trkpt>
      <trkpt lat="60.11292564" lon="30.51060095">
        <ele>46.76</ele>
        <time>2026-08-20T15:17:09Z</time>
      </trkpt>
      <trkpt lat="60.1128932" lon="30.51017448">
        <ele>46.76</ele>
        <time>2026-08-20T15:17:23Z</time>
      </trkpt>
      <trkpt lat="60.11285095" lon="30.50961063">
        <ele>46.28</ele>
        <time>2026-08-20T15:17:42Z</time>
      </trkpt>
      <trkpt lat="60.11282179" lon="30.50922314">
        <ele>46.28</ele>
        <time>2026-08-20T15:17:55Z</time>
      </trkpt>
      <trkpt lat="60.11277116" lon="30.5087302">
        <ele>47.24</ele>
        <time>2026-08-20T15:18:12Z</time>
      </trkpt>
      <trkpt lat="60.11273445" lon="30.50835217">
        <ele>47.24</ele>
        <time>2026-08-20T15:18:24Z</time>
      </trkpt>
      <trkpt lat="60.11269975" lon="30.50802679">
        <ele>48.2</ele>
        <time>2026-08-20T15:18:35Z</time>
      </trkpt>
      <trkpt lat="60.11269614" lon="30.50799846">
        <ele>48.2</ele>
        <time>2026-08-20T15:18:36Z</time>
      </trkpt>
      <trkpt lat="60.11269405" lon="30.50796845">
        <ele>48.2</ele>
        <time>2026-08-20T15:18:37Z</time>
      </trkpt>
      <trkpt lat="60.11269027" lon="30.50793903">
        <ele>48.2</ele>
        <time>2026-08-20T15:18:38Z</time>
      </trkpt>
      <trkpt lat="60.11268776" lon="30.50791305">
        <ele>48.2</ele>
        <time>2026-08-20T15:18:39Z</time>
      </trkpt>
      <trkpt lat="60.11268516" lon="30.50788723">
        <ele>48.2</ele>
        <time>2026-08-20T15:18:40Z</time>
      </trkpt>
      <trkpt lat="60.11268063" lon="30.50786166">
        <ele>48.2</ele>
        <time>2026-08-20T15:18:41Z</time>
      </trkpt>
      <trkpt lat="60.11267485" lon="30.50783509">
        <ele>48.2</ele>
        <time>2026-08-20T15:18:42Z</time>
      </trkpt>
      <trkpt lat="60.11266965" lon="30.50780735">
        <ele>48.2</ele>
        <time>2026-08-20T15:18:43Z</time>
      </trkpt>
      <trkpt lat="60.11266555" lon="30.50778447">
        <ele>48.2</ele>
        <time>2026-08-20T15:18:44Z</time>
      </trkpt>
      <trkpt lat="60.11266219" lon="30.50776226">
        <ele>48.2</ele>
        <time>2026-08-20T15:18:45Z</time>
      </trkpt>
      <trkpt lat="60.11265951" lon="30.50773585">
        <ele>48.68</ele>
        <time>2026-08-20T15:18:46Z</time>
      </trkpt>
      <trkpt lat="60.11265624" lon="30.50770844">
        <ele>48.68</ele>
        <time>2026-08-20T15:18:47Z</time>
      </trkpt>
      <trkpt lat="60.11265348" lon="30.50768137">
        <ele>48.68</ele>
        <time>2026-08-20T15:18:48Z</time>
      </trkpt>
      <trkpt lat="60.11264736" lon="30.50765622">
        <ele>48.68</ele>
        <time>2026-08-20T15:18:49Z</time>
      </trkpt>
      <trkpt lat="60.1126399" lon="30.50762932">
        <ele>48.68</ele>
        <time>2026-08-20T15:18:50Z</time>
      </trkpt>
      <trkpt lat="60.11263386" lon="30.50759914">
        <ele>48.68</ele>
        <time>2026-08-20T15:18:51Z</time>
      </trkpt>
      <trkpt lat="60.11262666" lon="30.50757333">
        <ele>48.68</ele>
        <time>2026-08-20T15:18:52Z</time>
      </trkpt>
      <trkpt lat="60.11262003" lon="30.5075538">
        <ele>49.16</ele>
        <time>2026-08-20T15:18:53Z</time>
      </trkpt>
      <trkpt lat="60.11261618" lon="30.50753066">
        <ele>49.16</ele>
        <time>2026-08-20T15:18:54Z</time>
      </trkpt>
      <trkpt lat="60.11261174" lon="30.50750409">
        <ele>49.16</ele>
        <time>2026-08-20T15:18:55Z</time>
      </trkpt>
      <trkpt lat="60.11258391" lon="30.50731952">
        <ele>49.16</ele>
        <time>2026-08-20T15:19:03Z</time>
      </trkpt>
      <trkpt lat="60.11251216" lon="30.50704904">
        <ele>49.65</ele>
        <time>2026-08-20T15:19:17Z</time>
      </trkpt>
      <trkpt lat="60.11247109" lon="30.50689749">
        <ele>49.65</ele>
        <time>2026-08-20T15:19:24Z</time>
      </trkpt>
      <trkpt lat="60.11245826" lon="30.50685684">
        <ele>49.16</ele>
        <time>2026-08-20T15:19:26Z</time>
      </trkpt>
      <trkpt lat="60.11244904" lon="30.50684008">
        <ele>49.16</ele>
        <time>2026-08-20T15:19:27Z</time>
      </trkpt>
      <trkpt lat="60.11243287" lon="30.50680479">
        <ele>49.16</ele>
        <time>2026-08-20T15:19:29Z</time>
      </trkpt>
      <trkpt lat="60.11240671" lon="30.50651989">
        <ele>49.65</ele>
        <time>2026-08-20T15:19:41Z</time>
      </trkpt>
      <trkpt lat="60.11235466" lon="30.50623507">
        <ele>49.65</ele>
        <time>2026-08-20T15:19:52Z</time>
      </trkpt>
      <trkpt lat="60.11235357" lon="30.50620339">
        <ele>49.65</ele>
        <time>2026-08-20T15:19:53Z</time>
      </trkpt>
      <trkpt lat="60.11235265" lon="30.50617497">
        <ele>49.65</ele>
        <time>2026-08-20T15:19:54Z</time>
      </trkpt>
      <trkpt lat="60.11234921" lon="30.5061391">
        <ele>49.65</ele>
        <time>2026-08-20T15:19:55Z</time>
      </trkpt>
      <trkpt lat="60.11234159" lon="30.50610566">
        <ele>49.65</ele>
        <time>2026-08-20T15:19:56Z</time>
      </trkpt>
      <trkpt lat="60.11233681" lon="30.50607095">
        <ele>49.65</ele>
        <time>2026-08-20T15:19:57Z</time>
      </trkpt>
      <trkpt lat="60.11233597" lon="30.50603793">
        <ele>49.65</ele>
        <time>2026-08-20T15:19:58Z</time>
      </trkpt>
      <trkpt lat="60.11232315" lon="30.50585596">
        <ele>49.65</ele>
        <time>2026-08-20T15:20:04Z</time>
      </trkpt>
      <trkpt lat="60.11227621" lon="30.50568597">
        <ele>49.65</ele>
        <time>2026-08-20T15:20:11Z</time>
      </trkpt>
      <trkpt lat="60.11227009" lon="30.50566033">
        <ele>49.65</ele>
        <time>2026-08-20T15:20:12Z</time>
      </trkpt>
      <trkpt lat="60.11226355" lon="30.50563585">
        <ele>49.65</ele>
        <time>2026-08-20T15:20:13Z</time>
      </trkpt>
      <trkpt lat="60.11216699" lon="30.50525162">
        <ele>49.65</ele>
        <time>2026-08-20T15:20:27Z</time>
      </trkpt>
      <trkpt lat="60.11213598" lon="30.50500805">
        <ele>49.65</ele>
        <time>2026-08-20T15:20:35Z</time>
      </trkpt>
      <trkpt lat="60.11213606" lon="30.50497569">
        <ele>49.65</ele>
        <time>2026-08-20T15:20:36Z</time>
      </trkpt>
      <trkpt lat="60.1121343" lon="30.5049508">
        <ele>49.65</ele>
        <time>2026-08-20T15:20:37Z</time>
      </trkpt>
      <trkpt lat="60.11208778" lon="30.50461259">
        <ele>49.65</ele>
        <time>2026-08-20T15:20:47Z</time>
      </trkpt>
      <trkpt lat="60.11202249" lon="30.50426105">
        <ele>49.16</ele>
        <time>2026-08-20T15:21:00Z</time>
      </trkpt>
      <trkpt lat="60.1119504" lon="30.50387154">
        <ele>49.16</ele>
        <time>2026-08-20T15:21:15Z</time>
      </trkpt>
      <trkpt lat="60.1119131" lon="30.50354188">
        <ele>50.13</ele>
        <time>2026-08-20T15:21:28Z</time>
      </trkpt>
      <trkpt lat="60.11190975" lon="30.50352604">
        <ele>50.13</ele>
        <time>2026-08-20T15:21:29Z</time>
      </trkpt>
      <trkpt lat="60.11190791" lon="30.50350668">
        <ele>50.13</ele>
        <time>2026-08-20T15:21:30Z</time>
      </trkpt>
      <trkpt lat="60.11190698" lon="30.50348598">
        <ele>50.13</ele>
        <time>2026-08-20T15:21:31Z</time>
      </trkpt>
      <trkpt lat="60.1119033" lon="30.50346728">
        <ele>50.13</ele>
        <time>2026-08-20T15:21:32Z</time>
      </trkpt>
      <trkpt lat="60.11189894" lon="30.50344918">
        <ele>50.13</ele>
        <time>2026-08-20T15:21:33Z</time>
      </trkpt>
      <trkpt lat="60.11189659" lon="30.5034268">
        <ele>50.13</ele>
        <time>2026-08-20T15:21:34Z</time>
      </trkpt>
      <trkpt lat="60.11188251" lon="30.50328674">
        <ele>49.65</ele>
        <time>2026-08-20T15:21:41Z</time>
      </trkpt>
      <trkpt lat="60.1118805" lon="30.50326142">
        <ele>50.13</ele>
        <time>2026-08-20T15:21:42Z</time>
      </trkpt>
      <trkpt lat="60.11187664" lon="30.50323603">
        <ele>49.65</ele>
        <time>2026-08-20T15:21:43Z</time>
      </trkpt>
      <trkpt lat="60.1118727" lon="30.50321147">
        <ele>49.65</ele>
        <time>2026-08-20T15:21:44Z</time>
      </trkpt>
      <trkpt lat="60.11187061" lon="30.50318674">
        <ele>49.65</ele>
        <time>2026-08-20T15:21:45Z</time>
      </trkpt>
      <trkpt lat="60.11186717" lon="30.50316285">
        <ele>49.65</ele>
        <time>2026-08-20T15:21:46Z</time>
      </trkpt>
      <trkpt lat="60.11186298" lon="30.50313628">
        <ele>49.65</ele>
        <time>2026-08-20T15:21:47Z</time>
      </trkpt>
      <trkpt lat="60.11186005" lon="30.50310737">
        <ele>49.65</ele>
        <time>2026-08-20T15:21:48Z</time>
      </trkpt>
      <trkpt lat="60.11186994" lon="30.50284208">
        <ele>49.65</ele>
        <time>2026-08-20T15:21:58Z</time>
      </trkpt>
      <trkpt lat="60.11186969" lon="30.50281945">
        <ele>49.65</ele>
        <time>2026-08-20T15:21:59Z</time>
      </trkpt>
      <trkpt lat="60.11186591" lon="30.50279916">
        <ele>49.65</ele>
        <time>2026-08-20T15:22:00Z</time>
      </trkpt>
      <trkpt lat="60.1118603" lon="30.50277829">
        <ele>49.65</ele>
        <time>2026-08-20T15:22:01Z</time>
      </trkpt>
      <trkpt lat="60.11183146" lon="30.50270705">
        <ele>49.65</ele>
        <time>2026-08-20T15:22:05Z</time>
      </trkpt>
      <trkpt lat="60.11178017" lon="30.50255257">
        <ele>49.16</ele>
        <time>2026-08-20T15:22:13Z</time>
      </trkpt>
      <trkpt lat="60.11176701" lon="30.50253815">
        <ele>48.68</ele>
        <time>2026-08-20T15:22:31Z</time>
      </trkpt>
      <trkpt lat="60.11176785" lon="30.50254527">
        <ele>48.68</ele>
        <time>2026-08-20T15:22:59Z</time>
      </trkpt>
      <trkpt lat="60.11176961" lon="30.50255433">
        <ele>48.68</ele>
        <time>2026-08-20T15:23:30Z</time>
      </trkpt>
      <trkpt lat="60.11177195" lon="30.50255525">
        <ele>48.68</ele>
        <time>2026-08-20T15:23:54Z</time>
      </trkpt>
      <trkpt lat="60.1117691" lon="30.50255978">
        <ele>48.68</ele>
        <time>2026-08-20T15:24:16Z</time>
      </trkpt>
      <trkpt lat="60.11177715" lon="30.50255827">
        <ele>48.68</ele>
        <time>2026-08-20T15:24:39Z</time>
      </trkpt>
      <trkpt lat="60.11177815" lon="30.50257059">
        <ele>49.16</ele>
        <time>2026-08-20T15:24:58Z</time>
      </trkpt>
      <trkpt lat="60.11177807" lon="30.50256422">
        <ele>49.16</ele>
        <time>2026-08-20T15:25:18Z</time>
      </trkpt>
      <trkpt lat="60.11177665" lon="30.50255944">
        <ele>49.16</ele>
        <time>2026-08-20T15:25:55Z</time>
      </trkpt>
      <trkpt lat="60.11177254" lon="30.50255626">
        <ele>49.16</ele>
        <time>2026-08-20T15:26:34Z</time>
      </trkpt>
      <trkpt lat="60.11177975" lon="30.50255969">
        <ele>49.16</ele>
        <time>2026-08-20T15:27:08Z</time>
      </trkpt>
      <trkpt lat="60.11176248" lon="30.50251066">
        <ele>49.16</ele>
        <time>2026-08-20T15:27:46Z</time>
      </trkpt>
      <trkpt lat="60.1117603" lon="30.50251409">
        <ele>49.16</ele>
        <time>2026-08-20T15:28:05Z</time>
      </trkpt>
      <trkpt lat="60.11176567" lon="30.50250689">
        <ele>48.68</ele>
        <time>2026-08-20T15:28:38Z</time>
      </trkpt>
      <trkpt lat="60.11177011" lon="30.502497">
        <ele>48.68</ele>
        <time>2026-08-20T15:29:05Z</time>
      </trkpt>
      <trkpt lat="60.11176416" lon="30.50248073">
        <ele>48.68</ele>
        <time>2026-08-20T15:29:30Z</time>
      </trkpt>
      <trkpt lat="60.11178989" lon="30.50240806">
        <ele>48.68</ele>
        <time>2026-08-20T15:29:59Z</time>
      </trkpt>
      <trkpt lat="60.11179349" lon="30.50238032">
        <ele>48.68</ele>
        <time>2026-08-20T15:30:00Z</time>
      </trkpt>
      <trkpt lat="60.1117976" lon="30.50234947">
        <ele>48.68</ele>
        <time>2026-08-20T15:30:01Z</time>
      </trkpt>
      <trkpt lat="60.11180104" lon="30.50231863">
        <ele>48.68</ele>
        <time>2026-08-20T15:30:02Z</time>
      </trkpt>
      <trkpt lat="60.11180489" lon="30.50228778">
        <ele>48.68</ele>
        <time>2026-08-20T15:30:03Z</time>
      </trkpt>
      <trkpt lat="60.11189056" lon="30.50197966">
        <ele>47.72</ele>
        <time>2026-08-20T15:30:16Z</time>
      </trkpt>
      <trkpt lat="60.11201302" lon="30.50193013">
        <ele>46.76</ele>
        <time>2026-08-20T15:30:28Z</time>
      </trkpt>
      <trkpt lat="60.11205384" lon="30.50196039">
        <ele>46.76</ele>
        <time>2026-08-20T15:30:32Z</time>
      </trkpt>
      <trkpt lat="60.11206599" lon="30.50196977">
        <ele>46.76</ele>
        <time>2026-08-20T15:30:33Z</time>
      </trkpt>
      <trkpt lat="60.11207814" lon="30.50197975">
        <ele>46.76</ele>
        <time>2026-08-20T15:30:34Z</time>
      </trkpt>
      <trkpt lat="60.11229004" lon="30.50209014">
        <ele>46.76</ele>
        <time>2026-08-20T15:30:50Z</time>
      </trkpt>
      <trkpt lat="60.1125083" lon="30.50215535">
        <ele>46.76</ele>
        <time>2026-08-20T15:31:06Z</time>
      </trkpt>
      <trkpt lat="60.1125114" lon="30.50214604">
        <ele>46.76</ele>
        <time>2026-08-20T15:31:17Z</time>
      </trkpt>
      <trkpt lat="60.11251568" lon="30.502152">
        <ele>45.8</ele>
        <time>2026-08-20T15:31:37Z</time>
      </trkpt>
    </trkseg>
  </trk>
</gpx>